<?xml version='1.0' encoding='UTF-8'?><gpx version="1.1" creator="JPX - https://github.com/jenetics/jpx" xmlns="http://www.topografix.com/GPX/1/1"><trk><trkseg><trkpt lat="43.93127306232333" lon="8.102477895013088"><ele>60.0</ele><time>2026-04-16T11:26:24Z</time></trkpt><trkpt lat="43.931203984786904" lon="8.102494703132441"><ele>60.0</ele><time>2026-04-16T11:26:27Z</time></trkpt><trkpt lat="43.93115792449183" lon="8.102423244806745"><ele>60.0</ele><time>2026-04-16T11:26:30Z</time></trkpt><trkpt lat="43.93109520145998" lon="8.102398159161494"><ele>60.0</ele><time>2026-04-16T11:26:37Z</time></trkpt><trkpt lat="43.931005179741184" lon="8.102358127946552"><ele>60.0</ele><time>2026-04-16T11:26:42Z</time></trkpt><trkpt lat="43.93091382501449" lon="8.102316449797206"><ele>60.0</ele><time>2026-04-16T11:26:44Z</time></trkpt><trkpt lat="43.93083421356895" lon="8.102298439038897"><ele>58.666666666666664</ele><time>2026-04-16T11:26:46Z</time></trkpt><trkpt lat="43.93076587878548" lon="8.102286794050844"><ele>57.33333333333333</ele><time>2026-04-16T11:26:49Z</time></trkpt><trkpt lat="43.93070982522256" lon="8.102214617936394"><ele>56.0</ele><time>2026-04-16T11:26:50.999Z</time></trkpt><trkpt lat="43.9306443355606" lon="8.102211301083782"><ele>54.666666666666664</ele><time>2026-04-16T11:26:52.999Z</time></trkpt><trkpt lat="43.93055500394692" lon="8.102185836501048"><ele>53.33333333333333</ele><time>2026-04-16T11:26:54.999Z</time></trkpt><trkpt lat="43.93046329679816" lon="8.102117369289124"><ele>52.0</ele><time>2026-04-16T11:26:56.999Z</time></trkpt><trkpt lat="43.930380834840925" lon="8.102039016724818"><ele>51.99999999999999</ele><time>2026-04-16T11:26:58.999Z</time></trkpt><trkpt lat="43.930298700428004" lon="8.101991689722748"><ele>52.0</ele><time>2026-04-16T11:27:00.999Z</time></trkpt><trkpt lat="43.930236243866915" lon="8.101976676650452"><ele>52.0</ele><time>2026-04-16T11:27:07.999Z</time></trkpt><trkpt lat="43.93015855302807" lon="8.101901672026523"><ele>52.0</ele><time>2026-04-16T11:27:10.999Z</time></trkpt><trkpt lat="43.93008463869456" lon="8.10182611597957"><ele>51.99999999999999</ele><time>2026-04-16T11:27:12.999Z</time></trkpt><trkpt lat="43.930020077425866" lon="8.101725533095985"><ele>52.0</ele><time>2026-04-16T11:27:14.999Z</time></trkpt><trkpt lat="43.92991468964654" lon="8.101699080954463"><ele>49.33333333333333</ele><time>2026-04-16T11:27:16.999Z</time></trkpt><trkpt lat="43.929838825834196" lon="8.101703107650836"><ele>46.666666666666664</ele><time>2026-04-16T11:27:17.999Z</time></trkpt><trkpt lat="43.92976834146995" lon="8.101701671936079"><ele>44.0</ele><time>2026-04-16T11:27:18.999Z</time></trkpt><trkpt lat="43.92966365991718" lon="8.101742420890385"><ele>41.33333333333333</ele><time>2026-04-16T11:27:20.999Z</time></trkpt><trkpt lat="43.929600277960255" lon="8.101748077040735"><ele>38.666666666666664</ele><time>2026-04-16T11:27:21.999Z</time></trkpt><trkpt lat="43.92949229752801" lon="8.101777242977269"><ele>36.0</ele><time>2026-04-16T11:27:23.999Z</time></trkpt><trkpt lat="43.92941382341487" lon="8.101814636242942"><ele>36.0</ele><time>2026-04-16T11:27:25.999Z</time></trkpt><trkpt lat="43.92932037584171" lon="8.101852523286428"><ele>36.0</ele><time>2026-04-16T11:27:27.999Z</time></trkpt><trkpt lat="43.929257413002105" lon="8.101832277381018"><ele>36.0</ele><time>2026-04-16T11:27:29.999Z</time></trkpt><trkpt lat="43.92918400582363" lon="8.101782838796085"><ele>36.0</ele><time>2026-04-16T11:27:31.999Z</time></trkpt><trkpt lat="43.9291100679912" lon="8.101837073224592"><ele>36.0</ele><time>2026-04-16T11:27:34.999Z</time></trkpt><trkpt lat="43.92904351870282" lon="8.101827853580215"><ele>36.0</ele><time>2026-04-16T11:27:36.999Z</time></trkpt><trkpt lat="43.92899358847167" lon="8.10175018576999"><ele>33.8</ele><time>2026-04-16T11:27:38.999Z</time></trkpt><trkpt lat="43.928968648917795" lon="8.101638627007448"><ele>31.6</ele><time>2026-04-16T11:27:40.999Z</time></trkpt><trkpt lat="43.9288848312672" lon="8.101681227403859"><ele>29.4</ele><time>2026-04-16T11:27:42.999Z</time></trkpt><trkpt lat="43.92882977945129" lon="8.101778813749029"><ele>27.2</ele><time>2026-04-16T11:27:44.999Z</time></trkpt><trkpt lat="43.928729329643915" lon="8.101819829241965"><ele>25.0</ele><time>2026-04-16T11:27:46.999Z</time></trkpt><trkpt lat="43.92865629132175" lon="8.101887328510282"><ele>25.000000000000004</ele><time>2026-04-16T11:27:48.999Z</time></trkpt><trkpt lat="43.92858282893632" lon="8.101898703470066"><ele>25.0</ele><time>2026-04-16T11:27:51.999Z</time></trkpt><trkpt lat="43.928513482423085" lon="8.101963417942722"><ele>25.0</ele><time>2026-04-16T11:27:54.999Z</time></trkpt><trkpt lat="43.92848309143456" lon="8.102073790070309"><ele>25.0</ele><time>2026-04-16T11:27:57.999Z</time></trkpt><trkpt lat="43.92839306698766" lon="8.102072091362263"><ele>25.000000000000004</ele><time>2026-04-16T11:27:58.999Z</time></trkpt><trkpt lat="43.928322065867825" lon="8.102090087927364"><ele>25.0</ele><time>2026-04-16T11:27:59.999Z</time></trkpt><trkpt lat="43.9282500188808" lon="8.10211661188847"><ele>24.2</ele><time>2026-04-16T11:28:00.999Z</time></trkpt><trkpt lat="43.92818117839096" lon="8.102132024697955"><ele>23.4</ele><time>2026-04-16T11:28:01.999Z</time></trkpt><trkpt lat="43.92808001884222" lon="8.102172626368672"><ele>22.6</ele><time>2026-04-16T11:28:03.999Z</time></trkpt><trkpt lat="43.92795973086434" lon="8.10221211042684"><ele>21.8</ele><time>2026-04-16T11:28:05.999Z</time></trkpt><trkpt lat="43.92788014434481" lon="8.10220185185053"><ele>21.0</ele><time>2026-04-16T11:28:07.999Z</time></trkpt><trkpt lat="43.92779740439117" lon="8.102231717661713"><ele>21.0</ele><time>2026-04-16T11:28:09.999Z</time></trkpt><trkpt lat="43.92772145746992" lon="8.10225586009466"><ele>21.0</ele><time>2026-04-16T11:28:11.999Z</time></trkpt><trkpt lat="43.92763672060126" lon="8.102261297790616"><ele>21.0</ele><time>2026-04-16T11:28:13.999Z</time></trkpt><trkpt lat="43.927539624356" lon="8.10229254764118"><ele>21.0</ele><time>2026-04-16T11:28:15.999Z</time></trkpt><trkpt lat="43.92744610335443" lon="8.102389536824841"><ele>21.0</ele><time>2026-04-16T11:28:17.999Z</time></trkpt><trkpt lat="43.92735245908407" lon="8.102472295656534"><ele>20.0</ele><time>2026-04-16T11:28:19.999Z</time></trkpt><trkpt lat="43.92725970532231" lon="8.102549362229063"><ele>19.0</ele><time>2026-04-16T11:28:21.999Z</time></trkpt><trkpt lat="43.92715527483193" lon="8.102581054708093"><ele>18.0</ele><time>2026-04-16T11:28:23.999Z</time></trkpt><trkpt lat="43.927075913090526" lon="8.102616734462602"><ele>17.0</ele><time>2026-04-16T11:28:25.999Z</time></trkpt><trkpt lat="43.92710728461768" lon="8.10283968619144"><ele>16.999999999999996</ele><time>2026-04-16T11:28:26.999Z</time></trkpt><trkpt lat="43.92711803494325" lon="8.102938679685959"><ele>17.0</ele><time>2026-04-16T11:28:27.999Z</time></trkpt><trkpt lat="43.927125292231544" lon="8.103026876595155"><ele>17.0</ele><time>2026-04-16T11:28:28.999Z</time></trkpt><trkpt lat="43.92712936167851" lon="8.10312595004255"><ele>17.0</ele><time>2026-04-16T11:28:29.999Z</time></trkpt><trkpt lat="43.92713844163609" lon="8.103224647490578"><ele>17.0</ele><time>2026-04-16T11:28:30.999Z</time></trkpt><trkpt lat="43.927133603395724" lon="8.103313445699817"><ele>16.999999999999996</ele><time>2026-04-16T11:28:31.999Z</time></trkpt><trkpt lat="43.927146750826594" lon="8.103407098654964"><ele>17.0</ele><time>2026-04-16T11:28:32.999Z</time></trkpt><trkpt lat="43.9271526362463" lon="8.103515641776145"><ele>16.5</ele><time>2026-04-16T11:28:33.999Z</time></trkpt><trkpt lat="43.927154002448496" lon="8.103611819963639"><ele>16.0</ele><time>2026-04-16T11:28:34.999Z</time></trkpt><trkpt lat="43.927158972814524" lon="8.103715383798196"><ele>15.5</ele><time>2026-04-16T11:28:35.999Z</time></trkpt><trkpt lat="43.92715967655631" lon="8.103807648435575"><ele>15.0</ele><time>2026-04-16T11:28:36.999Z</time></trkpt><trkpt lat="43.92715922063749" lon="8.103904459000342"><ele>14.500000000000002</ele><time>2026-04-16T11:28:37.999Z</time></trkpt><trkpt lat="43.92715945427753" lon="8.10407238423617"><ele>14.0</ele><time>2026-04-16T11:28:39.999Z</time></trkpt><trkpt lat="43.92716470508774" lon="8.10422384103063"><ele>14.0</ele><time>2026-04-16T11:28:41.999Z</time></trkpt><trkpt lat="43.92717013976181" lon="8.104378154352721"><ele>13.999999999999998</ele><time>2026-04-16T11:28:43.999Z</time></trkpt><trkpt lat="43.92719139482213" lon="8.104564625443532"><ele>13.999999999999998</ele><time>2026-04-16T11:28:45.999Z</time></trkpt><trkpt lat="43.927194384755396" lon="8.104669988797557"><ele>14.0</ele><time>2026-04-16T11:28:46.999Z</time></trkpt><trkpt lat="43.927206305650635" lon="8.104760905111222"><ele>14.0</ele><time>2026-04-16T11:28:47.999Z</time></trkpt><trkpt lat="43.92721782130107" lon="8.104862396691578"><ele>13.666666666666668</ele><time>2026-04-16T11:28:48.999Z</time></trkpt><trkpt lat="43.92722286908967" lon="8.104965608116666"><ele>13.333333333333334</ele><time>2026-04-16T11:28:49.999Z</time></trkpt><trkpt lat="43.92722350221127" lon="8.105071514747477"><ele>13.0</ele><time>2026-04-16T11:28:50.999Z</time></trkpt><trkpt lat="43.92722048159804" lon="8.105162566440212"><ele>12.666666666666668</ele><time>2026-04-16T11:28:51.999Z</time></trkpt><trkpt lat="43.92722720850156" lon="8.1053157602855"><ele>12.333333333333334</ele><time>2026-04-16T11:28:53.999Z</time></trkpt><trkpt lat="43.927221575069666" lon="8.1054056309"><ele>12.0</ele><time>2026-04-16T11:28:54.999Z</time></trkpt><trkpt lat="43.92721869370442" lon="8.105497211306453"><ele>12.0</ele><time>2026-04-16T11:28:55.999Z</time></trkpt><trkpt lat="43.927220427136916" lon="8.105660748131756"><ele>12.0</ele><time>2026-04-16T11:28:57.999Z</time></trkpt><trkpt lat="43.92720650149283" lon="8.105817232842853"><ele>12.0</ele><time>2026-04-16T11:28:59.999Z</time></trkpt><trkpt lat="43.92719196299299" lon="8.105908629473836"><ele>12.0</ele><time>2026-04-16T11:29:01.999Z</time></trkpt><trkpt lat="43.92709111429269" lon="8.105954938688376"><ele>12.0</ele><time>2026-04-16T11:29:04.999Z</time></trkpt><trkpt lat="43.927030820061184" lon="8.105986349620544"><ele>11.833333333333334</ele><time>2026-04-16T11:29:06.999Z</time></trkpt><trkpt lat="43.92695137037585" lon="8.106004795902173"><ele>11.666666666666666</ele><time>2026-04-16T11:29:09.999Z</time></trkpt><trkpt lat="43.92686610938168" lon="8.106050894126883"><ele>11.5</ele><time>2026-04-16T11:29:11.999Z</time></trkpt><trkpt lat="43.92680741547624" lon="8.10611019995701"><ele>11.333333333333332</ele><time>2026-04-16T11:29:13.999Z</time></trkpt><trkpt lat="43.92674521344108" lon="8.106135965228095"><ele>11.166666666666666</ele><time>2026-04-16T11:29:15.999Z</time></trkpt><trkpt lat="43.92666908477513" lon="8.106157881981751"><ele>11.0</ele><time>2026-04-16T11:29:18.999Z</time></trkpt><trkpt lat="43.926599882771846" lon="8.106212516613747"><ele>11.0</ele><time>2026-04-16T11:29:21.999Z</time></trkpt><trkpt lat="43.92651904246109" lon="8.106184192913494"><ele>11.0</ele><time>2026-04-16T11:29:24.999Z</time></trkpt><trkpt lat="43.926428794310716" lon="8.106212369159934"><ele>11.0</ele><time>2026-04-16T11:29:27.999Z</time></trkpt><trkpt lat="43.926365303686076" lon="8.10615700497029"><ele>11.0</ele><time>2026-04-16T11:29:29.999Z</time></trkpt><trkpt lat="43.92627850047108" lon="8.106122595367554"><ele>11.0</ele><time>2026-04-16T11:29:32.999Z</time></trkpt><trkpt lat="43.926202076546154" lon="8.106182171376558"><ele>11.0</ele><time>2026-04-16T11:29:34.999Z</time></trkpt><trkpt lat="43.926112294196415" lon="8.10617470945653"><ele>11.0</ele><time>2026-04-16T11:29:37.999Z</time></trkpt><trkpt lat="43.92603071507076" lon="8.106215369266243"><ele>11.0</ele><time>2026-04-16T11:29:40.999Z</time></trkpt><trkpt lat="43.92596843730105" lon="8.106244722480545"><ele>11.0</ele><time>2026-04-16T11:29:43.999Z</time></trkpt><trkpt lat="43.925909080312614" lon="8.1063062284216"><ele>11.0</ele><time>2026-04-16T11:29:46.999Z</time></trkpt><trkpt lat="43.92464125243379" lon="8.106465646188177"><ele>10.4</ele><time>2026-04-16T11:29:48.999Z</time></trkpt><trkpt lat="43.924581505492505" lon="8.10650959077594"><ele>9.8</ele><time>2026-04-16T11:29:49.999Z</time></trkpt><trkpt lat="43.92447510510205" lon="8.106573331365407"><ele>9.200000000000001</ele><time>2026-04-16T11:29:51.999Z</time></trkpt><trkpt lat="43.92440782984062" lon="8.106561624730753"><ele>8.600000000000001</ele><time>2026-04-16T11:29:52.999Z</time></trkpt><trkpt lat="43.9243042853788" lon="8.106627256078152"><ele>8.0</ele><time>2026-04-16T11:29:54.999Z</time></trkpt><trkpt lat="43.924196715121234" lon="8.106682927070338"><ele>7.800000000000001</ele><time>2026-04-16T11:29:56.999Z</time></trkpt><trkpt lat="43.92409511161167" lon="8.106715189978013"><ele>7.6000000000000005</ele><time>2026-04-16T11:29:58.999Z</time></trkpt><trkpt lat="43.92398029230775" lon="8.106751375133769"><ele>7.3999999999999995</ele><time>2026-04-16T11:30:00.999Z</time></trkpt><trkpt lat="43.92389088643461" lon="8.10684241876566"><ele>7.199999999999999</ele><time>2026-04-16T11:30:02.999Z</time></trkpt><trkpt lat="43.92386762209565" lon="8.106940680408712"><ele>7.0</ele><time>2026-04-16T11:30:03.999Z</time></trkpt><trkpt lat="43.92393957080577" lon="8.107099795504233"><ele>7.0</ele><time>2026-04-16T11:30:05.999Z</time></trkpt><trkpt lat="43.92401530196245" lon="8.107210140108196"><ele>7.0</ele><time>2026-04-16T11:30:07.999Z</time></trkpt><trkpt lat="43.924074434771605" lon="8.107352490807438"><ele>7.0</ele><time>2026-04-16T11:30:09.999Z</time></trkpt><trkpt lat="43.924246682950596" lon="8.107720161158568"><ele>7.0</ele><time>2026-04-16T11:30:10.999Z</time></trkpt><trkpt lat="43.92430594657868" lon="8.107779577697498"><ele>6.999999999999999</ele><time>2026-04-16T11:30:11.999Z</time></trkpt><trkpt lat="43.92430036780236" lon="8.107955133660498"><ele>6.999999999999999</ele><time>2026-04-16T11:30:13.999Z</time></trkpt><trkpt lat="43.92426379851434" lon="8.108073146171034"><ele>7.0</ele><time>2026-04-16T11:30:16.999Z</time></trkpt><trkpt lat="43.9242765784219" lon="8.108158864078305"><ele>7.0</ele><time>2026-04-16T11:30:17.999Z</time></trkpt><trkpt lat="43.924293939722574" lon="8.108293227995128"><ele>7.3999999999999995</ele><time>2026-04-16T11:30:19.999Z</time></trkpt><trkpt lat="43.92431562775182" lon="8.108453856339889"><ele>7.799999999999999</ele><time>2026-04-16T11:30:21.999Z</time></trkpt><trkpt lat="43.924332078623195" lon="8.108577220872023"><ele>8.2</ele><time>2026-04-16T11:30:23.999Z</time></trkpt><trkpt lat="43.92434955851541" lon="8.108725033694578"><ele>8.6</ele><time>2026-04-16T11:30:25.999Z</time></trkpt><trkpt lat="43.92436416668223" lon="8.10886751265389"><ele>9.0</ele><time>2026-04-16T11:30:27.999Z</time></trkpt><trkpt lat="43.92436760379751" lon="8.10901750361916"><ele>9.5</ele><time>2026-04-16T11:30:31Z</time></trkpt><trkpt lat="43.92435595253783" lon="8.109167774596216"><ele>10.0</ele><time>2026-04-16T11:30:34Z</time></trkpt><trkpt lat="43.924351759830145" lon="8.109266667128283"><ele>10.5</ele><time>2026-04-16T11:30:37Z</time></trkpt><trkpt lat="43.92430884393055" lon="8.109564912110361"><ele>11.0</ele><time>2026-04-16T11:30:39Z</time></trkpt><trkpt lat="43.92425109874681" lon="8.109656142893355"><ele>10.4</ele><time>2026-04-16T11:30:41Z</time></trkpt><trkpt lat="43.92420612998939" lon="8.109754027889188"><ele>9.8</ele><time>2026-04-16T11:30:46Z</time></trkpt><trkpt lat="43.924152395865825" lon="8.109835641280176"><ele>9.200000000000001</ele><time>2026-04-16T11:30:47Z</time></trkpt><trkpt lat="43.924121091997925" lon="8.10999429187734"><ele>8.600000000000001</ele><time>2026-04-16T11:30:49Z</time></trkpt><trkpt lat="43.924172294903755" lon="8.11014633946342"><ele>8.0</ele><time>2026-04-16T11:30:51Z</time></trkpt><trkpt lat="43.92419785409281" lon="8.11028141677944"><ele>8.0</ele><time>2026-04-16T11:30:53Z</time></trkpt><trkpt lat="43.9242126660835" lon="8.1104385399861"><ele>8.0</ele><time>2026-04-16T11:30:55Z</time></trkpt><trkpt lat="43.924213903251236" lon="8.110589938547767"><ele>8.0</ele><time>2026-04-16T11:30:57Z</time></trkpt><trkpt lat="43.92424831319257" lon="8.110664422719593"><ele>8.0</ele><time>2026-04-16T11:30:58Z</time></trkpt><trkpt lat="43.92423159573955" lon="8.11076794181922"><ele>8.0</ele><time>2026-04-16T11:30:59Z</time></trkpt><trkpt lat="43.92424632678523" lon="8.110916343095523"><ele>8.666666666666666</ele><time>2026-04-16T11:31:01Z</time></trkpt><trkpt lat="43.924264732436704" lon="8.111012378372962"><ele>9.333333333333332</ele><time>2026-04-16T11:31:02Z</time></trkpt><trkpt lat="43.92427100717025" lon="8.111160722023676"><ele>10.0</ele><time>2026-04-16T11:31:04Z</time></trkpt><trkpt lat="43.924264613348065" lon="8.111255940102067"><ele>10.666666666666666</ele><time>2026-04-16T11:31:05Z</time></trkpt><trkpt lat="43.92428555171617" lon="8.111388358548316"><ele>11.333333333333334</ele><time>2026-04-16T11:31:07Z</time></trkpt><trkpt lat="43.9243143889002" lon="8.111480915972223"><ele>12.0</ele><time>2026-04-16T11:31:10Z</time></trkpt><trkpt lat="43.924333195773606" lon="8.111586918013638"><ele>13.0</ele><time>2026-04-16T11:31:11.999Z</time></trkpt><trkpt lat="43.924326083692485" lon="8.11168745492897"><ele>14.0</ele><time>2026-04-16T11:31:13.999Z</time></trkpt><trkpt lat="43.9243466328105" lon="8.112088053694189"><ele>15.0</ele><time>2026-04-16T11:31:15.999Z</time></trkpt><trkpt lat="43.92434468848611" lon="8.112177774943058"><ele>16.0</ele><time>2026-04-16T11:31:16.999Z</time></trkpt><trkpt lat="43.92438158826404" lon="8.112319586066636"><ele>16.8</ele><time>2026-04-16T11:31:18.999Z</time></trkpt><trkpt lat="43.924365272856384" lon="8.112499568351755"><ele>17.6</ele><time>2026-04-16T11:31:20.999Z</time></trkpt><trkpt lat="43.92439290838519" lon="8.112583299234528"><ele>18.4</ele><time>2026-04-16T11:31:21.999Z</time></trkpt><trkpt lat="43.92442850443158" lon="8.112725938115819"><ele>19.2</ele><time>2026-04-16T11:31:23.999Z</time></trkpt><trkpt lat="43.92446744416966" lon="8.112874235521478"><ele>20.0</ele><time>2026-04-16T11:31:25.999Z</time></trkpt><trkpt lat="43.924475226476055" lon="8.112968458824271"><ele>20.0</ele><time>2026-04-16T11:31:26.999Z</time></trkpt><trkpt lat="43.92449152517378" lon="8.113120154106996"><ele>20.0</ele><time>2026-04-16T11:31:28.999Z</time></trkpt><trkpt lat="43.92451128616695" lon="8.113253460786494"><ele>20.0</ele><time>2026-04-16T11:31:30.999Z</time></trkpt><trkpt lat="43.924546193330364" lon="8.113385987133995"><ele>20.0</ele><time>2026-04-16T11:31:32.999Z</time></trkpt><trkpt lat="43.92458959832905" lon="8.113452091653864"><ele>20.0</ele><time>2026-04-16T11:31:33.999Z</time></trkpt><trkpt lat="43.92457262332952" lon="8.11354983015746"><ele>20.0</ele><time>2026-04-16T11:31:34.999Z</time></trkpt><trkpt lat="43.92461740132748" lon="8.113675561105198"><ele>19.2</ele><time>2026-04-16T11:31:36.999Z</time></trkpt><trkpt lat="43.92464916508877" lon="8.113751812300253"><ele>18.4</ele><time>2026-04-16T11:31:37.999Z</time></trkpt><trkpt lat="43.92475829698629" lon="8.113806147176586"><ele>17.6</ele><time>2026-04-16T11:31:41.999Z</time></trkpt><trkpt lat="43.92482091987077" lon="8.1137570571249"><ele>16.8</ele><time>2026-04-16T11:31:43.999Z</time></trkpt><trkpt lat="43.92489027237412" lon="8.113701326180458"><ele>16.0</ele><time>2026-04-16T11:31:46.999Z</time></trkpt><trkpt lat="43.92484220680037" lon="8.113479413380839"><ele>15.999999999999998</ele><time>2026-04-16T11:31:48.999Z</time></trkpt><trkpt lat="43.924824616622786" lon="8.113391589739207"><ele>16.0</ele><time>2026-04-16T11:31:50.999Z</time></trkpt><trkpt lat="43.92489248857092" lon="8.113317814317274"><ele>16.0</ele><time>2026-04-16T11:31:52.999Z</time></trkpt><trkpt lat="43.92493574281669" lon="8.11325413312753"><ele>16.0</ele><time>2026-04-16T11:31:55.999Z</time></trkpt><trkpt lat="43.92501177655341" lon="8.113241936670066"><ele>15.999999999999998</ele><time>2026-04-16T11:31:57.999Z</time></trkpt><trkpt lat="43.925082285266114" lon="8.113173914862726"><ele>16.0</ele><time>2026-04-16T11:32:00.999Z</time></trkpt><trkpt lat="43.92516527332748" lon="8.113126813828485"><ele>18.6</ele><time>2026-04-16T11:32:03.999Z</time></trkpt><trkpt lat="43.92519616493452" lon="8.113049084936405"><ele>21.200000000000003</ele><time>2026-04-16T11:32:06Z</time></trkpt><trkpt lat="43.92527967240919" lon="8.113017990011242"><ele>23.799999999999997</ele><time>2026-04-16T11:32:09Z</time></trkpt><trkpt lat="43.92534942047687" lon="8.113030862701518"><ele>26.4</ele><time>2026-04-16T11:32:11Z</time></trkpt><trkpt lat="43.925430489654474" lon="8.113034489032703"><ele>29.0</ele><time>2026-04-16T11:32:14Z</time></trkpt><trkpt lat="43.926652140734575" lon="8.112927744353454"><ele>33.0</ele><time>2026-04-16T11:32:17Z</time></trkpt><trkpt lat="43.92677483841956" lon="8.11296904441063"><ele>37.0</ele><time>2026-04-16T11:32:20Z</time></trkpt><trkpt lat="43.92684941652191" lon="8.112971011067602"><ele>41.0</ele><time>2026-04-16T11:32:21Z</time></trkpt><trkpt lat="43.92692613685131" lon="8.112976126348459"><ele>45.0</ele><time>2026-04-16T11:32:22Z</time></trkpt><trkpt lat="43.92698979551152" lon="8.112975400026672"><ele>49.0</ele><time>2026-04-16T11:32:23Z</time></trkpt><trkpt lat="43.927182963107796" lon="8.112973244868321"><ele>49.0</ele><time>2026-04-16T11:32:26Z</time></trkpt><trkpt lat="43.92726001532653" lon="8.112910830642056"><ele>49.0</ele><time>2026-04-16T11:32:28Z</time></trkpt><trkpt lat="43.92732314282592" lon="8.112881925625508"><ele>49.0</ele><time>2026-04-16T11:32:29Z</time></trkpt><trkpt lat="43.92743869995801" lon="8.112866818641784"><ele>49.0</ele><time>2026-04-16T11:32:31Z</time></trkpt><trkpt lat="43.927562828028464" lon="8.11285841560383"><ele>49.0</ele><time>2026-04-16T11:32:33Z</time></trkpt><trkpt lat="43.92699258467873" lon="8.112967927065487"><ele>49.0</ele><time>2026-04-16T11:32:35Z</time></trkpt><trkpt lat="43.92720395332357" lon="8.112931743922797"><ele>49.0</ele><time>2026-04-16T11:32:37Z</time></trkpt><trkpt lat="43.92727116940285" lon="8.112913153194524"><ele>49.0</ele><time>2026-04-16T11:32:38Z</time></trkpt><trkpt lat="43.92734404593787" lon="8.112892996947126"><ele>49.0</ele><time>2026-04-16T11:32:45Z</time></trkpt><trkpt lat="43.92741383844401" lon="8.11284897159434"><ele>49.0</ele><time>2026-04-16T11:32:47Z</time></trkpt><trkpt lat="43.92782040881323" lon="8.112729314877605"><ele>49.400000000000006</ele><time>2026-04-16T11:32:51Z</time></trkpt><trkpt lat="43.927904454925894" lon="8.112678391981344"><ele>49.8</ele><time>2026-04-16T11:32:53Z</time></trkpt><trkpt lat="43.92802089085902" lon="8.112675422623854"><ele>50.2</ele><time>2026-04-16T11:32:56Z</time></trkpt><trkpt lat="43.92819174564835" lon="8.11267080895732"><ele>50.599999999999994</ele><time>2026-04-16T11:33:02Z</time></trkpt><trkpt lat="43.92825560365307" lon="8.11264470207423"><ele>51.0</ele><time>2026-04-16T11:33:04Z</time></trkpt><trkpt lat="43.928324922593426" lon="8.112507597835474"><ele>51.0</ele><time>2026-04-16T11:33:06Z</time></trkpt><trkpt lat="43.92842113881848" lon="8.112429908718848"><ele>51.0</ele><time>2026-04-16T11:33:09Z</time></trkpt><trkpt lat="43.928464529749725" lon="8.112340721378299"><ele>51.0</ele><time>2026-04-16T11:33:11Z</time></trkpt><trkpt lat="43.92833142535486" lon="8.11232938072842"><ele>51.0</ele><time>2026-04-16T11:33:12Z</time></trkpt><trkpt lat="43.928385308590755" lon="8.112233355039097"><ele>51.0</ele><time>2026-04-16T11:33:15Z</time></trkpt><trkpt lat="43.928467974534044" lon="8.112214357449302"><ele>55.199999999999996</ele><time>2026-04-16T11:33:17Z</time></trkpt><trkpt lat="43.9285284580974" lon="8.112158547887862"><ele>59.4</ele><time>2026-04-16T11:33:19Z</time></trkpt><trkpt lat="43.928595821673724" lon="8.112145496321718"><ele>63.6</ele><time>2026-04-16T11:33:21Z</time></trkpt><trkpt lat="43.92867981450853" lon="8.112123465931713"><ele>67.8</ele><time>2026-04-16T11:33:24Z</time></trkpt><trkpt lat="43.92875528376159" lon="8.112150141581084"><ele>72.0</ele><time>2026-04-16T11:33:26Z</time></trkpt><trkpt lat="43.928997763087516" lon="8.112145610819418"><ele>72.0</ele><time>2026-04-16T11:33:32Z</time></trkpt><trkpt lat="43.9290752675222" lon="8.112140534247276"><ele>72.0</ele><time>2026-04-16T11:33:34Z</time></trkpt><trkpt lat="43.92917551907007" lon="8.11220939089424"><ele>72.0</ele><time>2026-04-16T11:33:36Z</time></trkpt><trkpt lat="43.929248443335695" lon="8.112219203890389"><ele>72.0</ele><time>2026-04-16T11:33:38Z</time></trkpt><trkpt lat="43.92936282302334" lon="8.11221924467805"><ele>72.0</ele><time>2026-04-16T11:33:41Z</time></trkpt><trkpt lat="43.929449627873026" lon="8.112211273291464"><ele>71.0</ele><time>2026-04-16T11:33:43Z</time></trkpt><trkpt lat="43.92955183096045" lon="8.112194445480018"><ele>70.0</ele><time>2026-04-16T11:33:45Z</time></trkpt><trkpt lat="43.92969245209177" lon="8.11219234931874"><ele>69.0</ele><time>2026-04-16T11:33:48Z</time></trkpt><trkpt lat="43.92980080041836" lon="8.112179737663611"><ele>68.0</ele><time>2026-04-16T11:33:50Z</time></trkpt><trkpt lat="43.92989934156662" lon="8.112150681177152"><ele>68.0</ele><time>2026-04-16T11:33:52Z</time></trkpt><trkpt lat="43.92999148529637" lon="8.112147378111464"><ele>68.0</ele><time>2026-04-16T11:33:54Z</time></trkpt><trkpt lat="43.930094308427556" lon="8.11218185707739"><ele>68.0</ele><time>2026-04-16T11:33:56Z</time></trkpt><trkpt lat="43.930203198818724" lon="8.112208679384919"><ele>68.0</ele><time>2026-04-16T11:33:58Z</time></trkpt><trkpt lat="43.93029773833732" lon="8.11226420547742"><ele>68.0</ele><time>2026-04-16T11:34:00Z</time></trkpt><trkpt lat="43.932058433629486" lon="8.112893624725364"><ele>72.66666666666667</ele><time>2026-04-16T11:34:44Z</time></trkpt><trkpt lat="43.9321578095836" lon="8.112918792870317"><ele>77.33333333333333</ele><time>2026-04-16T11:34:47Z</time></trkpt><trkpt lat="43.93246240059007" lon="8.11294786608191"><ele>82.0</ele><time>2026-04-16T11:34:54Z</time></trkpt><trkpt lat="43.93258383827105" lon="8.1129642820099"><ele>90.5</ele><time>2026-04-16T11:34:57Z</time></trkpt><trkpt lat="43.932661813667586" lon="8.11295245992063"><ele>99.0</ele><time>2026-04-16T11:34:59Z</time></trkpt><trkpt lat="43.93311705360553" lon="8.112876213221975"><ele>99.0</ele><time>2026-04-16T11:35:14Z</time></trkpt><trkpt lat="43.93319401729741" lon="8.112932753709838"><ele>99.0</ele><time>2026-04-16T11:35:16Z</time></trkpt><trkpt lat="43.933308894459216" lon="8.112960329268116"><ele>99.0</ele><time>2026-04-16T11:35:19Z</time></trkpt><trkpt lat="43.93341973987099" lon="8.112999028794734"><ele>99.0</ele><time>2026-04-16T11:35:22Z</time></trkpt><trkpt lat="43.93348556867415" lon="8.11303879186542"><ele>99.0</ele><time>2026-04-16T11:35:24Z</time></trkpt><trkpt lat="43.93362227972863" lon="8.11306466340283"><ele>123.0</ele><time>2026-04-16T11:35:28Z</time></trkpt><trkpt lat="43.93527877865624" lon="8.113051819692945"><ele>123.0</ele><time>2026-04-16T11:35:45Z</time></trkpt><trkpt lat="43.93535702936655" lon="8.112994691650439"><ele>123.0</ele><time>2026-04-16T11:35:47Z</time></trkpt><trkpt lat="43.93539001930478" lon="8.112903258770066"><ele>123.0</ele><time>2026-04-16T11:35:50Z</time></trkpt><trkpt lat="43.93546771501502" lon="8.11285698809894"><ele>123.0</ele><time>2026-04-16T11:35:53Z</time></trkpt><trkpt lat="43.93552296023452" lon="8.112747678888741"><ele>123.0</ele><time>2026-04-16T11:35:56Z</time></trkpt><trkpt lat="43.93552626301455" lon="8.112648925189555"><ele>123.0</ele><time>2026-04-16T11:35:59Z</time></trkpt><trkpt lat="43.935469375859284" lon="8.11258312986711"><ele>123.0</ele><time>2026-04-16T11:36:04Z</time></trkpt><trkpt lat="43.93544116504548" lon="8.112456620257394"><ele>123.0</ele><time>2026-04-16T11:36:07Z</time></trkpt><trkpt lat="43.9355160322047" lon="8.112399487219129"><ele>123.0</ele><time>2026-04-16T11:36:09Z</time></trkpt><trkpt lat="43.935719062208854" lon="8.112365292270159"><ele>123.0</ele><time>2026-04-16T11:36:18Z</time></trkpt><trkpt lat="43.935793400123345" lon="8.11238374115964"><ele>126.16666666666667</ele><time>2026-04-16T11:36:21Z</time></trkpt><trkpt lat="43.935880079004804" lon="8.112355886247427"><ele>129.33333333333334</ele><time>2026-04-16T11:36:24Z</time></trkpt><trkpt lat="43.935969458550915" lon="8.112389524088137"><ele>132.5</ele><time>2026-04-16T11:36:27Z</time></trkpt><trkpt lat="43.93605916956978" lon="8.112379788635817"><ele>135.66666666666669</ele><time>2026-04-16T11:36:30Z</time></trkpt><trkpt lat="43.936118588996294" lon="8.112437634668643"><ele>138.83333333333334</ele><time>2026-04-16T11:36:32Z</time></trkpt><trkpt lat="43.93617837990271" lon="8.112497327201654"><ele>142.0</ele><time>2026-04-16T11:36:34Z</time></trkpt><trkpt lat="43.93624917480814" lon="8.112490922778743"><ele>142.0</ele><time>2026-04-16T11:36:36Z</time></trkpt><trkpt lat="43.93629095259259" lon="8.112556502623088"><ele>142.0</ele><time>2026-04-16T11:36:38Z</time></trkpt><trkpt lat="43.936360889582055" lon="8.112614487894444"><ele>142.0</ele><time>2026-04-16T11:36:41Z</time></trkpt><trkpt lat="43.936425541511866" lon="8.112678629729563"><ele>142.0</ele><time>2026-04-16T11:36:44Z</time></trkpt><trkpt lat="43.936488741765736" lon="8.11277041151439"><ele>142.0</ele><time>2026-04-16T11:36:47Z</time></trkpt><trkpt lat="43.93656517563317" lon="8.112824689704722"><ele>142.0</ele><time>2026-04-16T11:36:50Z</time></trkpt><trkpt lat="43.93663254198118" lon="8.112928465212933"><ele>142.0</ele><time>2026-04-16T11:36:53Z</time></trkpt><trkpt lat="43.936702467916795" lon="8.113009928984614"><ele>142.0</ele><time>2026-04-16T11:36:56Z</time></trkpt><trkpt lat="43.93675507289337" lon="8.11306039877131"><ele>142.0</ele><time>2026-04-16T11:36:58Z</time></trkpt><trkpt lat="43.93689335326781" lon="8.11310203134073"><ele>142.0</ele><time>2026-04-16T11:37:03Z</time></trkpt><trkpt lat="43.93696392508299" lon="8.113211994389404"><ele>142.0</ele><time>2026-04-16T11:37:06Z</time></trkpt><trkpt lat="43.937033087476834" lon="8.113284887174236"><ele>142.5</ele><time>2026-04-16T11:37:09Z</time></trkpt><trkpt lat="43.937096389819395" lon="8.113347658648651"><ele>143.0</ele><time>2026-04-16T11:37:12Z</time></trkpt><trkpt lat="43.93714922054358" lon="8.11343241565628"><ele>143.5</ele><time>2026-04-16T11:37:14Z</time></trkpt><trkpt lat="43.93717955223559" lon="8.11354890337717"><ele>144.0</ele><time>2026-04-16T11:37:16Z</time></trkpt><trkpt lat="43.93723973991893" lon="8.11359960227109"><ele>144.5</ele><time>2026-04-16T11:37:18Z</time></trkpt><trkpt lat="43.93730694801185" lon="8.11360779673433"><ele>145.0</ele><time>2026-04-16T11:37:20Z</time></trkpt><trkpt lat="43.93737610706938" lon="8.113698845296588"><ele>145.0</ele><time>2026-04-16T11:37:23Z</time></trkpt><trkpt lat="43.93743327307264" lon="8.113771724473496"><ele>145.0</ele><time>2026-04-16T11:37:25Z</time></trkpt><trkpt lat="43.93751947116102" lon="8.113863283494549"><ele>145.0</ele><time>2026-04-16T11:37:28Z</time></trkpt><trkpt lat="43.93756751248914" lon="8.113971302499028"><ele>145.0</ele><time>2026-04-16T11:37:31Z</time></trkpt><trkpt lat="43.93762636048681" lon="8.114024165260199"><ele>145.0</ele><time>2026-04-16T11:37:33Z</time></trkpt><trkpt lat="43.937677071706936" lon="8.114142186091941"><ele>145.0</ele><time>2026-04-16T11:37:36Z</time></trkpt><trkpt lat="43.93766302288695" lon="8.11427163919048"><ele>143.66666666666669</ele><time>2026-04-16T11:37:38Z</time></trkpt><trkpt lat="43.93767308129436" lon="8.114404426502688"><ele>142.33333333333334</ele><time>2026-04-16T11:37:41Z</time></trkpt><trkpt lat="43.93764077118009" lon="8.11449750369923"><ele>141.0</ele><time>2026-04-16T11:37:43Z</time></trkpt><trkpt lat="43.93761119411375" lon="8.11459646774244"><ele>139.66666666666666</ele><time>2026-04-16T11:37:47Z</time></trkpt><trkpt lat="43.93755527038624" lon="8.11468946287588"><ele>138.33333333333331</ele><time>2026-04-16T11:37:51Z</time></trkpt><trkpt lat="43.9374873847583" lon="8.114735939852102"><ele>137.0</ele><time>2026-04-16T11:37:54Z</time></trkpt><trkpt lat="43.937428322294046" lon="8.114820714378688"><ele>137.0</ele><time>2026-04-16T11:37:57Z</time></trkpt><trkpt lat="43.93738744471214" lon="8.114903503668117"><ele>137.0</ele><time>2026-04-16T11:38:00Z</time></trkpt><trkpt lat="43.93739705624283" lon="8.114994317910766"><ele>137.0</ele><time>2026-04-16T11:38:04Z</time></trkpt><trkpt lat="43.93758280953282" lon="8.114969685105603"><ele>137.0</ele><time>2026-04-16T11:38:13Z</time></trkpt><trkpt lat="43.937709519264274" lon="8.114998819328306"><ele>140.4</ele><time>2026-04-16T11:38:16Z</time></trkpt><trkpt lat="43.93777611409959" lon="8.115020910442626"><ele>143.79999999999998</ele><time>2026-04-16T11:38:18Z</time></trkpt><trkpt lat="43.93787559050042" lon="8.115064256868406"><ele>147.2</ele><time>2026-04-16T11:38:21Z</time></trkpt><trkpt lat="43.93796863628101" lon="8.115033150926623"><ele>150.6</ele><time>2026-04-16T11:38:24Z</time></trkpt><trkpt lat="43.93809646723098" lon="8.115026054247652"><ele>154.0</ele><time>2026-04-16T11:38:29Z</time></trkpt><trkpt lat="43.938166452621594" lon="8.115109870338312"><ele>154.0</ele><time>2026-04-16T11:38:31Z</time></trkpt><trkpt lat="43.93816928323538" lon="8.115213125213828"><ele>154.0</ele><time>2026-04-16T11:38:33Z</time></trkpt><trkpt lat="43.93812778224148" lon="8.115286904282735"><ele>154.0</ele><time>2026-04-16T11:38:36Z</time></trkpt><trkpt lat="43.93807593204564" lon="8.115345128460708"><ele>154.0</ele><time>2026-04-16T11:38:39Z</time></trkpt><trkpt lat="43.938009801437715" lon="8.115399345909095"><ele>154.0</ele><time>2026-04-16T11:38:42Z</time></trkpt><trkpt lat="43.937971336384116" lon="8.115479444935298"><ele>154.0</ele><time>2026-04-16T11:38:45Z</time></trkpt><trkpt lat="43.93794257521049" lon="8.115568258922664"><ele>154.0</ele><time>2026-04-16T11:38:48Z</time></trkpt><trkpt lat="43.937924512784434" lon="8.115659009430633"><ele>155.8</ele><time>2026-04-16T11:38:51Z</time></trkpt><trkpt lat="43.93786726895503" lon="8.115743581507795"><ele>157.60000000000002</ele><time>2026-04-16T11:38:54Z</time></trkpt><trkpt lat="43.93785267525144" lon="8.115830173930942"><ele>159.4</ele><time>2026-04-16T11:38:57Z</time></trkpt><trkpt lat="43.93789526575282" lon="8.115909846739275"><ele>161.20000000000002</ele><time>2026-04-16T11:39:02Z</time></trkpt><trkpt lat="43.93809826249888" lon="8.115930516995409"><ele>163.0</ele><time>2026-04-16T11:39:11Z</time></trkpt><trkpt lat="43.93817811748274" lon="8.115906750550307"><ele>163.0</ele><time>2026-04-16T11:39:14Z</time></trkpt><trkpt lat="43.93823809606099" lon="8.115858926456507"><ele>163.0</ele><time>2026-04-16T11:39:17Z</time></trkpt><trkpt lat="43.93828437191221" lon="8.115790837388884"><ele>163.0</ele><time>2026-04-16T11:39:20Z</time></trkpt><trkpt lat="43.93834685287786" lon="8.11569584255811"><ele>163.0</ele><time>2026-04-16T11:39:23Z</time></trkpt><trkpt lat="43.938412379644184" lon="8.115609351290876"><ele>163.0</ele><time>2026-04-16T11:39:26Z</time></trkpt><trkpt lat="43.938468006642005" lon="8.115561453670123"><ele>163.0</ele><time>2026-04-16T11:39:28Z</time></trkpt><trkpt lat="43.938518335963344" lon="8.115507178465771"><ele>163.0</ele><time>2026-04-16T11:39:30Z</time></trkpt><trkpt lat="43.93858069366466" lon="8.115440820700483"><ele>165.83333333333334</ele><time>2026-04-16T11:39:33Z</time></trkpt><trkpt lat="43.9386326252089" lon="8.115387488845194"><ele>168.66666666666669</ele><time>2026-04-16T11:39:35Z</time></trkpt><trkpt lat="43.938688290709095" lon="8.115286910442544"><ele>171.5</ele><time>2026-04-16T11:39:38Z</time></trkpt><trkpt lat="43.93869897755493" lon="8.11517846351955"><ele>174.33333333333334</ele><time>2026-04-16T11:39:42Z</time></trkpt><trkpt lat="43.93873549097274" lon="8.115090426999153"><ele>177.16666666666666</ele><time>2026-04-16T11:39:45Z</time></trkpt><trkpt lat="43.93879481036927" lon="8.114998044705168"><ele>180.0</ele><time>2026-04-16T11:39:48Z</time></trkpt><trkpt lat="43.938838884496775" lon="8.1148823275757"><ele>180.0</ele><time>2026-04-16T11:39:51Z</time></trkpt><trkpt lat="43.938908604282624" lon="8.11485498214923"><ele>180.0</ele><time>2026-04-16T11:39:53Z</time></trkpt><trkpt lat="43.93909133475638" lon="8.114882542908367"><ele>180.0</ele><time>2026-04-16T11:40:00Z</time></trkpt><trkpt lat="43.93914580403753" lon="8.114937775450757"><ele>180.0</ele><time>2026-04-16T11:40:03Z</time></trkpt><trkpt lat="43.939217292604404" lon="8.114996143945675"><ele>180.0</ele><time>2026-04-16T11:40:06Z</time></trkpt><trkpt lat="43.93923730257007" lon="8.115110093390108"><ele>180.0</ele><time>2026-04-16T11:40:09Z</time></trkpt><trkpt lat="43.93924517265122" lon="8.115199618600865"><ele>180.0</ele><time>2026-04-16T11:40:11Z</time></trkpt><trkpt lat="43.93925705380704" lon="8.115331813866602"><ele>180.0</ele><time>2026-04-16T11:40:14Z</time></trkpt><trkpt lat="43.93922633731117" lon="8.115432466334784"><ele>180.0</ele><time>2026-04-16T11:40:16Z</time></trkpt><trkpt lat="43.939217347326746" lon="8.115530847104"><ele>180.0</ele><time>2026-04-16T11:40:18Z</time></trkpt><trkpt lat="43.939189502640694" lon="8.115648502974434"><ele>180.0</ele><time>2026-04-16T11:40:21Z</time></trkpt><trkpt lat="43.93916749384714" lon="8.11576651608467"><ele>180.66666666666666</ele><time>2026-04-16T11:40:24Z</time></trkpt><trkpt lat="43.939137796195844" lon="8.115851341538832"><ele>181.33333333333334</ele><time>2026-04-16T11:40:26Z</time></trkpt><trkpt lat="43.939121316359746" lon="8.115971491104158"><ele>182.0</ele><time>2026-04-16T11:40:29Z</time></trkpt><trkpt lat="43.93917043102761" lon="8.116027796595967"><ele>182.66666666666669</ele><time>2026-04-16T11:40:32Z</time></trkpt><trkpt lat="43.93922747897209" lon="8.115968257910618"><ele>183.33333333333334</ele><time>2026-04-16T11:40:35Z</time></trkpt><trkpt lat="43.93928332585123" lon="8.115896510312254"><ele>184.0</ele><time>2026-04-16T11:40:38Z</time></trkpt><trkpt lat="43.939364361347465" lon="8.11583761884596"><ele>187.5</ele><time>2026-04-16T11:40:41Z</time></trkpt><trkpt lat="43.9394224772762" lon="8.11580096149692"><ele>191.0</ele><time>2026-04-16T11:40:43Z</time></trkpt><trkpt lat="43.939485560779346" lon="8.115730357197936"><ele>194.5</ele><time>2026-04-16T11:40:46Z</time></trkpt><trkpt lat="43.93953823324348" lon="8.11566048799825"><ele>198.0</ele><time>2026-04-16T11:40:49Z</time></trkpt><trkpt lat="43.93958377660578" lon="8.115573955594183"><ele>201.49999999999997</ele><time>2026-04-16T11:40:51Z</time></trkpt><trkpt lat="43.939638930165174" lon="8.115500441070036"><ele>205.0</ele><time>2026-04-16T11:40:53Z</time></trkpt><trkpt lat="43.9396792576867" lon="8.115398051226025"><ele>204.99999999999997</ele><time>2026-04-16T11:40:56Z</time></trkpt><trkpt lat="43.939721347254725" lon="8.115288224595627"><ele>205.0</ele><time>2026-04-16T11:40:59Z</time></trkpt><trkpt lat="43.93973946449365" lon="8.115170764111598"><ele>205.0</ele><time>2026-04-16T11:41:02Z</time></trkpt><trkpt lat="43.93977170142811" lon="8.115089233938965"><ele>205.0</ele><time>2026-04-16T11:41:04Z</time></trkpt><trkpt lat="43.93978126637887" lon="8.114957656727716"><ele>204.99999999999997</ele><time>2026-04-16T11:41:07Z</time></trkpt><trkpt lat="43.939780139774875" lon="8.114826117652253"><ele>205.0</ele><time>2026-04-16T11:41:10Z</time></trkpt><trkpt lat="43.93976231431196" lon="8.114696240621086"><ele>206.49999999999997</ele><time>2026-04-16T11:41:13Z</time></trkpt><trkpt lat="43.939738085005104" lon="8.114574760373625"><ele>208.0</ele><time>2026-04-16T11:41:16Z</time></trkpt><trkpt lat="43.9397285981308" lon="8.114475448654263"><ele>209.5</ele><time>2026-04-16T11:41:18Z</time></trkpt><trkpt lat="43.93969167325892" lon="8.114401658749994"><ele>211.0</ele><time>2026-04-16T11:41:20Z</time></trkpt><trkpt lat="43.939650286991274" lon="8.114279591997397"><ele>212.49999999999997</ele><time>2026-04-16T11:41:23Z</time></trkpt><trkpt lat="43.93961768868063" lon="8.114198555667828"><ele>214.0</ele><time>2026-04-16T11:41:25Z</time></trkpt><trkpt lat="43.93959206388661" lon="8.114113454573193"><ele>214.16666666666666</ele><time>2026-04-16T11:41:27Z</time></trkpt><trkpt lat="43.9395646420307" lon="8.114033610500806"><ele>214.33333333333331</ele><time>2026-04-16T11:41:29Z</time></trkpt><trkpt lat="43.939525929988726" lon="8.113963665155408"><ele>214.5</ele><time>2026-04-16T11:41:31Z</time></trkpt><trkpt lat="43.939467736173825" lon="8.113871898428126"><ele>214.66666666666669</ele><time>2026-04-16T11:41:34Z</time></trkpt><trkpt lat="43.939412735501584" lon="8.11381670997037"><ele>214.83333333333334</ele><time>2026-04-16T11:41:36Z</time></trkpt><trkpt lat="43.93935346772273" lon="8.113714622126201"><ele>215.0</ele><time>2026-04-16T11:41:39Z</time></trkpt><trkpt lat="43.93935368621067" lon="8.113609327118022"><ele>215.00000000000003</ele><time>2026-04-16T11:41:42Z</time></trkpt><trkpt lat="43.939398520156274" lon="8.113508245709804"><ele>215.0</ele><time>2026-04-16T11:41:45Z</time></trkpt><trkpt lat="43.93945979375875" lon="8.113444850235387"><ele>215.0</ele><time>2026-04-16T11:41:48Z</time></trkpt><trkpt lat="43.93952466683409" lon="8.113452292364368"><ele>215.0</ele><time>2026-04-16T11:41:51Z</time></trkpt><trkpt lat="43.93957558962454" lon="8.113532453463034"><ele>215.00000000000003</ele><time>2026-04-16T11:41:54Z</time></trkpt><trkpt lat="43.93962413299217" lon="8.113588927495108"><ele>215.0</ele><time>2026-04-16T11:41:57Z</time></trkpt><trkpt lat="43.939679680579054" lon="8.113676847297894"><ele>215.00000000000003</ele><time>2026-04-16T11:42:00Z</time></trkpt><trkpt lat="43.939745395417795" lon="8.113750702781735"><ele>215.0</ele><time>2026-04-16T11:42:03Z</time></trkpt><trkpt lat="43.93980434435249" lon="8.113828520522693"><ele>215.0</ele><time>2026-04-16T11:42:06Z</time></trkpt><trkpt lat="43.93985970073646" lon="8.113901120723693"><ele>215.0</ele><time>2026-04-16T11:42:09Z</time></trkpt><trkpt lat="43.93991403755343" lon="8.113979543114533"><ele>215.00000000000003</ele><time>2026-04-16T11:42:12Z</time></trkpt><trkpt lat="43.93996776109527" lon="8.114031227755337"><ele>215.0</ele><time>2026-04-16T11:42:15Z</time></trkpt><trkpt lat="43.940025710753225" lon="8.114121338741795"><ele>215.83333333333334</ele><time>2026-04-16T11:42:18Z</time></trkpt><trkpt lat="43.94008327007515" lon="8.114174588599996"><ele>216.66666666666669</ele><time>2026-04-16T11:42:21Z</time></trkpt><trkpt lat="43.940147750293455" lon="8.11421922880384"><ele>217.5</ele><time>2026-04-16T11:42:24Z</time></trkpt><trkpt lat="43.9402588611427" lon="8.114287093636733"><ele>218.33333333333331</ele><time>2026-04-16T11:42:28Z</time></trkpt><trkpt lat="43.940311130365934" lon="8.114339433245819"><ele>219.16666666666666</ele><time>2026-04-16T11:42:30Z</time></trkpt><trkpt lat="43.94036167017231" lon="8.114434468392432"><ele>220.0</ele><time>2026-04-16T11:42:32Z</time></trkpt><trkpt lat="43.940408669607294" lon="8.114516651244314"><ele>219.99999999999997</ele><time>2026-04-16T11:42:34Z</time></trkpt><trkpt lat="43.94045806453729" lon="8.114582618786974"><ele>220.0</ele><time>2026-04-16T11:42:36Z</time></trkpt><trkpt lat="43.94051641450799" lon="8.114660099377547"><ele>220.0</ele><time>2026-04-16T11:42:39Z</time></trkpt><trkpt lat="43.94054446100949" lon="8.114746924587948"><ele>220.0</ele><time>2026-04-16T11:42:41Z</time></trkpt><trkpt lat="43.940552820036466" lon="8.114846249167705"><ele>219.99999999999997</ele><time>2026-04-16T11:42:43Z</time></trkpt><trkpt lat="43.94060292087233" lon="8.114942740755215"><ele>220.0</ele><time>2026-04-16T11:42:46Z</time></trkpt><trkpt lat="43.940647785232514" lon="8.11504999619173"><ele>220.49999999999997</ele><time>2026-04-16T11:42:49Z</time></trkpt><trkpt lat="43.94070610155119" lon="8.11511574758569"><ele>221.0</ele><time>2026-04-16T11:42:52Z</time></trkpt><trkpt lat="43.940756510386706" lon="8.115204576327953"><ele>221.5</ele><time>2026-04-16T11:42:55Z</time></trkpt><trkpt lat="43.94080317374103" lon="8.115293543628118"><ele>222.0</ele><time>2026-04-16T11:42:58Z</time></trkpt><trkpt lat="43.94085226942273" lon="8.11541157174713"><ele>222.49999999999997</ele><time>2026-04-16T11:43:01Z</time></trkpt><trkpt lat="43.94087276572607" lon="8.115497393482908"><ele>223.0</ele><time>2026-04-16T11:43:03Z</time></trkpt><trkpt lat="43.94090513482115" lon="8.115577634418761"><ele>222.49999999999997</ele><time>2026-04-16T11:43:06Z</time></trkpt><trkpt lat="43.94095735166616" lon="8.1156374896034"><ele>222.0</ele><time>2026-04-16T11:43:08Z</time></trkpt><trkpt lat="43.94093000806119" lon="8.11576169487083"><ele>221.5</ele><time>2026-04-16T11:43:10Z</time></trkpt><trkpt lat="43.94100178235928" lon="8.115799071282636"><ele>221.0</ele><time>2026-04-16T11:43:12Z</time></trkpt><trkpt lat="43.941052069624945" lon="8.115870238707817"><ele>220.49999999999997</ele><time>2026-04-16T11:43:14Z</time></trkpt><trkpt lat="43.941053027670364" lon="8.115991630641789"><ele>220.0</ele><time>2026-04-16T11:43:17Z</time></trkpt><trkpt lat="43.94108087042759" lon="8.116076726602376"><ele>219.99999999999997</ele><time>2026-04-16T11:43:19Z</time></trkpt><trkpt lat="43.94113626363646" lon="8.116151662075765"><ele>220.0</ele><time>2026-04-16T11:43:21Z</time></trkpt><trkpt lat="43.941153851418875" lon="8.116239813061794"><ele>220.0</ele><time>2026-04-16T11:43:23Z</time></trkpt><trkpt lat="43.94118723269587" lon="8.116339420407893"><ele>220.0</ele><time>2026-04-16T11:43:26Z</time></trkpt><trkpt lat="43.94122765524241" lon="8.116436320373769"><ele>219.99999999999997</ele><time>2026-04-16T11:43:29Z</time></trkpt><trkpt lat="43.94129165232061" lon="8.116487701190211"><ele>220.0</ele><time>2026-04-16T11:43:31Z</time></trkpt><trkpt lat="43.941373918661824" lon="8.116556875877022"><ele>221.99999999999997</ele><time>2026-04-16T11:43:33Z</time></trkpt><trkpt lat="43.941361952815335" lon="8.116667711894916"><ele>224.0</ele><time>2026-04-16T11:43:35Z</time></trkpt><trkpt lat="43.94135853257956" lon="8.116768234412993"><ele>226.0</ele><time>2026-04-16T11:43:37Z</time></trkpt><trkpt lat="43.94139024202937" lon="8.116891143882567"><ele>228.0</ele><time>2026-04-16T11:43:40Z</time></trkpt><trkpt lat="43.94137813606378" lon="8.116999697443854"><ele>229.99999999999997</ele><time>2026-04-16T11:43:42Z</time></trkpt><trkpt lat="43.94142717486912" lon="8.117085506666387"><ele>232.0</ele><time>2026-04-16T11:43:44Z</time></trkpt><trkpt lat="43.941451365308694" lon="8.117215478908475"><ele>231.99999999999997</ele><time>2026-04-16T11:43:47Z</time></trkpt><trkpt lat="43.94147698379188" lon="8.117337650278087"><ele>232.0</ele><time>2026-04-16T11:43:50Z</time></trkpt><trkpt lat="43.94147985489179" lon="8.117461333753848"><ele>232.0</ele><time>2026-04-16T11:43:53Z</time></trkpt><trkpt lat="43.94150349663617" lon="8.117567223933696"><ele>232.0</ele><time>2026-04-16T11:43:56Z</time></trkpt><trkpt lat="43.94151177819113" lon="8.117661232758465"><ele>231.99999999999997</ele><time>2026-04-16T11:43:58Z</time></trkpt><trkpt lat="43.94154436671356" lon="8.117769325465272"><ele>232.0</ele><time>2026-04-16T11:44:01Z</time></trkpt><trkpt lat="43.941554801186975" lon="8.11788699533856"><ele>234.66666666666666</ele><time>2026-04-16T11:44:04Z</time></trkpt><trkpt lat="43.941576645093214" lon="8.118033363053433"><ele>237.33333333333331</ele><time>2026-04-16T11:44:06Z</time></trkpt><trkpt lat="43.94158632028604" lon="8.11813661235165"><ele>240.0</ele><time>2026-04-16T11:44:08Z</time></trkpt><trkpt lat="43.94159760365205" lon="8.1182629278884"><ele>242.66666666666669</ele><time>2026-04-16T11:44:11Z</time></trkpt><trkpt lat="43.941601250257385" lon="8.118371025470811"><ele>245.33333333333334</ele><time>2026-04-16T11:44:13Z</time></trkpt><trkpt lat="43.94160604504563" lon="8.118461383938843"><ele>248.0</ele><time>2026-04-16T11:44:15Z</time></trkpt><trkpt lat="43.94163259543967" lon="8.118541958723938"><ele>249.66666666666669</ele><time>2026-04-16T11:44:17Z</time></trkpt><trkpt lat="43.94163148490169" lon="8.118631173915052"><ele>251.33333333333334</ele><time>2026-04-16T11:44:19Z</time></trkpt><trkpt lat="43.94167154119286" lon="8.118729084007684"><ele>253.0</ele><time>2026-04-16T11:44:22Z</time></trkpt><trkpt lat="43.941699020400264" lon="8.118815075481825"><ele>254.66666666666669</ele><time>2026-04-16T11:44:25Z</time></trkpt><trkpt lat="43.94170563028863" lon="8.118921033580348"><ele>256.3333333333333</ele><time>2026-04-16T11:44:28Z</time></trkpt><trkpt lat="43.94171311304506" lon="8.11903754026171"><ele>258.0</ele><time>2026-04-16T11:44:31Z</time></trkpt><trkpt lat="43.941728816462486" lon="8.11915541450726"><ele>260.6666666666667</ele><time>2026-04-16T11:44:34Z</time></trkpt><trkpt lat="43.941747711047526" lon="8.119267257332968"><ele>263.3333333333333</ele><time>2026-04-16T11:44:37Z</time></trkpt><trkpt lat="43.941770980466835" lon="8.119370404917738"><ele>266.0</ele><time>2026-04-16T11:44:40Z</time></trkpt><trkpt lat="43.941767004588456" lon="8.119483550903995"><ele>268.66666666666663</ele><time>2026-04-16T11:44:43Z</time></trkpt><trkpt lat="43.9417866674239" lon="8.119581506619724"><ele>271.3333333333333</ele><time>2026-04-16T11:44:46Z</time></trkpt><trkpt lat="43.941784723136706" lon="8.11968701125754"><ele>274.0</ele><time>2026-04-16T11:44:49Z</time></trkpt><trkpt lat="43.94182221891384" lon="8.119780103478764"><ele>273.66666666666663</ele><time>2026-04-16T11:44:52Z</time></trkpt><trkpt lat="43.941814252687024" lon="8.119910324638182"><ele>273.3333333333333</ele><time>2026-04-16T11:44:55Z</time></trkpt><trkpt lat="43.94181769343324" lon="8.120017928250896"><ele>273.0</ele><time>2026-04-16T11:44:57Z</time></trkpt><trkpt lat="43.941779761155324" lon="8.120123581798413"><ele>272.6666666666667</ele><time>2026-04-16T11:44:59Z</time></trkpt><trkpt lat="43.941749144133105" lon="8.120237900576589"><ele>272.33333333333337</ele><time>2026-04-16T11:45:01Z</time></trkpt><trkpt lat="43.94172472935176" lon="8.120324987339682"><ele>272.0</ele><time>2026-04-16T11:45:03Z</time></trkpt><trkpt lat="43.941682945352696" lon="8.12040683690552"><ele>272.0</ele><time>2026-04-16T11:45:05Z</time></trkpt><trkpt lat="43.941633989684" lon="8.12048258465648"><ele>272.0</ele><time>2026-04-16T11:45:07Z</time></trkpt><trkpt lat="43.941584121179815" lon="8.120543548824422"><ele>272.0</ele><time>2026-04-16T11:45:09Z</time></trkpt><trkpt lat="43.941527014956336" lon="8.120618128280412"><ele>272.0</ele><time>2026-04-16T11:45:12Z</time></trkpt><trkpt lat="43.94145577443303" lon="8.12066884111877"><ele>272.0</ele><time>2026-04-16T11:45:15Z</time></trkpt><trkpt lat="43.94138680230509" lon="8.120692447324299"><ele>272.0</ele><time>2026-04-16T11:45:17Z</time></trkpt><trkpt lat="43.94132235306139" lon="8.120787156646857"><ele>273.99999999999994</ele><time>2026-04-16T11:45:20Z</time></trkpt><trkpt lat="43.941284385461614" lon="8.120864553046788"><ele>276.0</ele><time>2026-04-16T11:45:23Z</time></trkpt><trkpt lat="43.94127095960813" lon="8.120960365737703"><ele>278.0</ele><time>2026-04-16T11:45:26Z</time></trkpt><trkpt lat="43.94125158873069" lon="8.121071220536676"><ele>280.0</ele><time>2026-04-16T11:45:29Z</time></trkpt><trkpt lat="43.94121363711066" lon="8.121168468891414"><ele>282.0</ele><time>2026-04-16T11:45:31Z</time></trkpt><trkpt lat="43.94121095605312" lon="8.121262824044244"><ele>283.99999999999994</ele><time>2026-04-16T11:45:34Z</time></trkpt><trkpt lat="43.941175097414295" lon="8.121364998756029"><ele>286.0</ele><time>2026-04-16T11:45:37Z</time></trkpt><trkpt lat="43.94113941566903" lon="8.121438681757613"><ele>286.0</ele><time>2026-04-16T11:45:39Z</time></trkpt><trkpt lat="43.941082274199815" lon="8.121493243981616"><ele>286.0</ele><time>2026-04-16T11:45:41Z</time></trkpt><trkpt lat="43.94105265011353" lon="8.121576282301671"><ele>286.0</ele><time>2026-04-16T11:45:43Z</time></trkpt><trkpt lat="43.94097916907459" lon="8.12162804232326"><ele>286.0</ele><time>2026-04-16T11:45:45Z</time></trkpt><trkpt lat="43.94090233133585" lon="8.121693811880045"><ele>286.0</ele><time>2026-04-16T11:45:48Z</time></trkpt><trkpt lat="43.940835994824724" lon="8.121758239664615"><ele>286.0</ele><time>2026-04-16T11:45:51Z</time></trkpt><trkpt lat="43.940766179808826" lon="8.121841910438102"><ele>286.0</ele><time>2026-04-16T11:45:54Z</time></trkpt><trkpt lat="43.940690191437234" lon="8.12190498168009"><ele>286.0</ele><time>2026-04-16T11:45:57Z</time></trkpt><trkpt lat="43.94063753186927" lon="8.121964040090536"><ele>286.0</ele><time>2026-04-16T11:45:59Z</time></trkpt><trkpt lat="43.940579557630876" lon="8.122001327636273"><ele>286.0</ele><time>2026-04-16T11:46:01Z</time></trkpt><trkpt lat="43.94048733397549" lon="8.122045494633193"><ele>286.0</ele><time>2026-04-16T11:46:04Z</time></trkpt><trkpt lat="43.94043130499678" lon="8.122098567490267"><ele>286.0</ele><time>2026-04-16T11:46:06Z</time></trkpt><trkpt lat="43.94036822876963" lon="8.122128848305486"><ele>286.0</ele><time>2026-04-16T11:46:08Z</time></trkpt><trkpt lat="43.94029403214838" lon="8.122194015282469"><ele>286.0</ele><time>2026-04-16T11:46:11Z</time></trkpt><trkpt lat="43.94023230148005" lon="8.12224560278826"><ele>286.0</ele><time>2026-04-16T11:46:14Z</time></trkpt><trkpt lat="43.94016369800853" lon="8.122306041291127"><ele>286.0</ele><time>2026-04-16T11:46:17Z</time></trkpt><trkpt lat="43.940081802725274" lon="8.122357664157038"><ele>286.0</ele><time>2026-04-16T11:46:20Z</time></trkpt><trkpt lat="43.93999436829102" lon="8.122397465769097"><ele>286.0</ele><time>2026-04-16T11:46:23Z</time></trkpt><trkpt lat="43.93993532803774" lon="8.12245870749681"><ele>290.2</ele><time>2026-04-16T11:46:26Z</time></trkpt><trkpt lat="43.94008641661729" lon="8.122540061169747"><ele>294.40000000000003</ele><time>2026-04-16T11:46:38Z</time></trkpt><trkpt lat="43.940157052809845" lon="8.122552482058937"><ele>298.6</ele><time>2026-04-16T11:46:41Z</time></trkpt><trkpt lat="43.940229286267694" lon="8.122537843828404"><ele>302.8</ele><time>2026-04-16T11:46:45Z</time></trkpt><trkpt lat="43.940299436401475" lon="8.122564528633319"><ele>307.0</ele><time>2026-04-16T11:46:48Z</time></trkpt><trkpt lat="43.94036694377232" lon="8.122596617657859"><ele>306.99999999999994</ele><time>2026-04-16T11:46:51Z</time></trkpt><trkpt lat="43.94043322216041" lon="8.122631170686327"><ele>307.0</ele><time>2026-04-16T11:46:54Z</time></trkpt><trkpt lat="43.94050083411499" lon="8.122633905391732"><ele>307.0</ele><time>2026-04-16T11:46:57Z</time></trkpt><trkpt lat="43.94057908878489" lon="8.122658232054405"><ele>307.0</ele><time>2026-04-16T11:47:00Z</time></trkpt><trkpt lat="43.94064745685878" lon="8.122705915092775"><ele>307.0</ele><time>2026-04-16T11:47:03Z</time></trkpt><trkpt lat="43.940711425656886" lon="8.122760304316719"><ele>306.99999999999994</ele><time>2026-04-16T11:47:06Z</time></trkpt><trkpt lat="43.94078497656242" lon="8.122788970791401"><ele>307.0</ele><time>2026-04-16T11:47:09Z</time></trkpt><trkpt lat="43.940849673404635" lon="8.122827932600252"><ele>312.0</ele><time>2026-04-16T11:47:12Z</time></trkpt><trkpt lat="43.941069016971916" lon="8.122859780439917"><ele>317.0</ele><time>2026-04-16T11:47:22Z</time></trkpt><trkpt lat="43.94125334325765" lon="8.122920217608746"><ele>322.0</ele><time>2026-04-16T11:47:30Z</time></trkpt><trkpt lat="43.94132943576845" lon="8.122946639535432"><ele>322.0</ele><time>2026-04-16T11:47:33Z</time></trkpt><trkpt lat="43.94144022918979" lon="8.122981077077078"><ele>322.0</ele><time>2026-04-16T11:47:38Z</time></trkpt><trkpt lat="43.94149640489389" lon="8.123071825012545"><ele>322.0</ele><time>2026-04-16T11:47:41Z</time></trkpt><trkpt lat="43.94162690315403" lon="8.12308110682745"><ele>322.0</ele><time>2026-04-16T11:47:46Z</time></trkpt><trkpt lat="43.9417250638052" lon="8.12313301831114"><ele>322.0</ele><time>2026-04-16T11:47:50Z</time></trkpt><trkpt lat="43.9417959650193" lon="8.12319032250924"><ele>323.42857142857144</ele><time>2026-04-16T11:47:53Z</time></trkpt><trkpt lat="43.94187397328598" lon="8.123171947409224"><ele>324.8571428571429</ele><time>2026-04-16T11:47:56Z</time></trkpt><trkpt lat="43.94194685950721" lon="8.12315976061479"><ele>326.2857142857143</ele><time>2026-04-16T11:48:00Z</time></trkpt><trkpt lat="43.94201305820212" lon="8.123158827498399"><ele>327.7142857142857</ele><time>2026-04-16T11:48:03Z</time></trkpt><trkpt lat="43.942064135412835" lon="8.123102998565585"><ele>329.14285714285717</ele><time>2026-04-16T11:48:06Z</time></trkpt><trkpt lat="43.94213427854493" lon="8.12307296676043"><ele>330.57142857142856</ele><time>2026-04-16T11:48:09Z</time></trkpt><trkpt lat="43.94219383150358" lon="8.123039583998944"><ele>332.0</ele><time>2026-04-16T11:48:12Z</time></trkpt><trkpt lat="43.942279196968514" lon="8.123013545340156"><ele>332.0</ele><time>2026-04-16T11:48:16Z</time></trkpt><trkpt lat="43.94233893751536" lon="8.122967999236337"><ele>332.0</ele><time>2026-04-16T11:48:19Z</time></trkpt><trkpt lat="43.9424227858884" lon="8.122944765937158"><ele>332.0</ele><time>2026-04-16T11:48:23Z</time></trkpt><trkpt lat="43.942487287212025" lon="8.122898859796575"><ele>332.0</ele><time>2026-04-16T11:48:26Z</time></trkpt><trkpt lat="43.942563681983806" lon="8.122874753053164"><ele>332.0</ele><time>2026-04-16T11:48:29Z</time></trkpt><trkpt lat="43.942648870737735" lon="8.12285987110399"><ele>332.0</ele><time>2026-04-16T11:48:32Z</time></trkpt><trkpt lat="43.9427374882345" lon="8.122868814612753"><ele>333.0</ele><time>2026-04-16T11:48:34Z</time></trkpt><trkpt lat="43.94280043354805" lon="8.122808016853305"><ele>334.0</ele><time>2026-04-16T11:48:37Z</time></trkpt><trkpt lat="43.942850609460415" lon="8.122748542723633"><ele>335.0</ele><time>2026-04-16T11:48:40Z</time></trkpt><trkpt lat="43.94291099463169" lon="8.122713471686124"><ele>336.0</ele><time>2026-04-16T11:48:43Z</time></trkpt><trkpt lat="43.94298813901924" lon="8.122746176674264"><ele>337.0</ele><time>2026-04-16T11:48:45Z</time></trkpt><trkpt lat="43.943031856148544" lon="8.12268134923882"><ele>338.0</ele><time>2026-04-16T11:48:48Z</time></trkpt><trkpt lat="43.94308727498857" lon="8.122627901579653"><ele>339.0</ele><time>2026-04-16T11:48:51Z</time></trkpt><trkpt lat="43.94302734207385" lon="8.122667203719914"><ele>339.0</ele><time>2026-04-16T11:51:30Z</time></trkpt><trkpt lat="43.942966295867194" lon="8.122695691602585"><ele>339.0</ele><time>2026-04-16T11:51:32Z</time></trkpt><trkpt lat="43.942860575154306" lon="8.122699843545098"><ele>339.0</ele><time>2026-04-16T11:51:34Z</time></trkpt><trkpt lat="43.942794156673905" lon="8.122751192615405"><ele>339.0</ele><time>2026-04-16T11:51:35Z</time></trkpt><trkpt lat="43.942728136714734" lon="8.12275164436133"><ele>339.0</ele><time>2026-04-16T11:51:36Z</time></trkpt><trkpt lat="43.942654251453604" lon="8.122757271308773"><ele>339.0</ele><time>2026-04-16T11:51:37Z</time></trkpt><trkpt lat="43.942587581911695" lon="8.12276039949218"><ele>337.6</ele><time>2026-04-16T11:51:38Z</time></trkpt><trkpt lat="43.94252020601353" lon="8.12274020890843"><ele>336.2</ele><time>2026-04-16T11:51:39Z</time></trkpt><trkpt lat="43.9423988096126" lon="8.1227713162226"><ele>334.8</ele><time>2026-04-16T11:51:41Z</time></trkpt><trkpt lat="43.942301381612" lon="8.122797166068283"><ele>333.40000000000003</ele><time>2026-04-16T11:51:43Z</time></trkpt><trkpt lat="43.94221945558137" lon="8.122750887907968"><ele>332.0</ele><time>2026-04-16T11:51:45Z</time></trkpt><trkpt lat="43.94211170815181" lon="8.122735896671418"><ele>332.0</ele><time>2026-04-16T11:51:47Z</time></trkpt><trkpt lat="43.942040874428464" lon="8.122736669049461"><ele>332.0</ele><time>2026-04-16T11:51:48Z</time></trkpt><trkpt lat="43.94204874019206" lon="8.122874480399409"><ele>332.0</ele><time>2026-04-16T11:51:50Z</time></trkpt><trkpt lat="43.94208725618696" lon="8.123005225253156"><ele>332.0</ele><time>2026-04-16T11:51:52Z</time></trkpt><trkpt lat="43.94198863219628" lon="8.122996288241948"><ele>332.0</ele><time>2026-04-16T11:51:54Z</time></trkpt><trkpt lat="43.94190014377823" lon="8.123035660987771"><ele>332.0</ele><time>2026-04-16T11:51:56Z</time></trkpt><trkpt lat="43.941807480172216" lon="8.122957212043252"><ele>332.0</ele><time>2026-04-16T11:51:58Z</time></trkpt><trkpt lat="43.94169151209093" lon="8.122973498538762"><ele>332.0</ele><time>2026-04-16T11:52:00Z</time></trkpt><trkpt lat="43.94162843107689" lon="8.122959444256075"><ele>332.0</ele><time>2026-04-16T11:52:02Z</time></trkpt><trkpt lat="43.94156514795324" lon="8.122907110460352"><ele>332.0</ele><time>2026-04-16T11:52:04Z</time></trkpt><trkpt lat="43.94149131206011" lon="8.12278790490275"><ele>330.33333333333337</ele><time>2026-04-16T11:52:06Z</time></trkpt><trkpt lat="43.94144092144615" lon="8.122841191495873"><ele>328.6666666666667</ele><time>2026-04-16T11:52:08Z</time></trkpt><trkpt lat="43.94136821011322" lon="8.122833411821173"><ele>327.0</ele><time>2026-04-16T11:52:09Z</time></trkpt><trkpt lat="43.94130033033982" lon="8.122829747561324"><ele>325.3333333333333</ele><time>2026-04-16T11:52:10Z</time></trkpt><trkpt lat="43.941220023370704" lon="8.122801444856036"><ele>323.66666666666663</ele><time>2026-04-16T11:52:12Z</time></trkpt><trkpt lat="43.94112361434304" lon="8.122865854765617"><ele>322.0</ele><time>2026-04-16T11:52:14Z</time></trkpt><trkpt lat="43.94103983358482" lon="8.122892219521823"><ele>322.0</ele><time>2026-04-16T11:52:15Z</time></trkpt><trkpt lat="43.94097092585357" lon="8.122883967288914"><ele>322.0</ele><time>2026-04-16T11:52:16Z</time></trkpt><trkpt lat="43.94089933790204" lon="8.122865909604029"><ele>322.0</ele><time>2026-04-16T11:52:17Z</time></trkpt><trkpt lat="43.940848660448424" lon="8.122795718376157"><ele>322.0</ele><time>2026-04-16T11:52:18Z</time></trkpt><trkpt lat="43.940777339332094" lon="8.122760853434556"><ele>322.0</ele><time>2026-04-16T11:52:19Z</time></trkpt><trkpt lat="43.940676777165756" lon="8.122870970087625"><ele>322.0</ele><time>2026-04-16T11:52:20Z</time></trkpt><trkpt lat="43.94060968605134" lon="8.122914004206004"><ele>319.0</ele><time>2026-04-16T11:52:21Z</time></trkpt><trkpt lat="43.94054421060319" lon="8.1229549874365"><ele>316.0</ele><time>2026-04-16T11:52:22Z</time></trkpt><trkpt lat="43.940453552439614" lon="8.123011488813557"><ele>313.0</ele><time>2026-04-16T11:52:24Z</time></trkpt><trkpt lat="43.94039290260807" lon="8.123048866028146"><ele>310.0</ele><time>2026-04-16T11:52:26Z</time></trkpt><trkpt lat="43.94029748281197" lon="8.123107671266222"><ele>307.0</ele><time>2026-04-16T11:52:29Z</time></trkpt><trkpt lat="43.94020480861487" lon="8.123186948589566"><ele>307.0</ele><time>2026-04-16T11:52:32Z</time></trkpt><trkpt lat="43.940130198797696" lon="8.123192508857304"><ele>307.0</ele><time>2026-04-16T11:52:34Z</time></trkpt><trkpt lat="43.94018195752649" lon="8.123632604601465"><ele>307.0</ele><time>2026-04-16T11:52:35Z</time></trkpt><trkpt lat="43.940126429913924" lon="8.123708751642265"><ele>307.5</ele><time>2026-04-16T11:52:36Z</time></trkpt><trkpt lat="43.940073174692905" lon="8.123788934900174"><ele>308.0</ele><time>2026-04-16T11:52:37Z</time></trkpt><trkpt lat="43.94003867396328" lon="8.123867723322382"><ele>308.5</ele><time>2026-04-16T11:52:38Z</time></trkpt><trkpt lat="43.939993411912305" lon="8.123948816486612"><ele>309.0</ele><time>2026-04-16T11:52:40Z</time></trkpt><trkpt lat="43.939912713928315" lon="8.124026619555325"><ele>309.5</ele><time>2026-04-16T11:52:42Z</time></trkpt><trkpt lat="43.939820659701326" lon="8.124050574747377"><ele>310.0</ele><time>2026-04-16T11:52:44Z</time></trkpt><trkpt lat="43.93976668625179" lon="8.124100320085866"><ele>307.5</ele><time>2026-04-16T11:52:45Z</time></trkpt><trkpt lat="43.939696959251556" lon="8.124095475073464"><ele>305.0</ele><time>2026-04-16T11:52:46Z</time></trkpt><trkpt lat="43.939637397582736" lon="8.124123855013744"><ele>302.5</ele><time>2026-04-16T11:52:47Z</time></trkpt><trkpt lat="43.93958507715792" lon="8.124245899898186"><ele>300.0</ele><time>2026-04-16T11:52:53Z</time></trkpt><trkpt lat="43.93952449935579" lon="8.124357582111875"><ele>297.5</ele><time>2026-04-16T11:52:54Z</time></trkpt><trkpt lat="43.93944433025174" lon="8.124428810588826"><ele>295.0</ele><time>2026-04-16T11:52:55Z</time></trkpt><trkpt lat="43.93937630298152" lon="8.124498339759553"><ele>295.0</ele><time>2026-04-16T11:52:56Z</time></trkpt><trkpt lat="43.939297466461404" lon="8.124556317829551"><ele>295.0</ele><time>2026-04-16T11:52:57Z</time></trkpt><trkpt lat="43.939199435997054" lon="8.124650047559529"><ele>295.0</ele><time>2026-04-16T11:52:58Z</time></trkpt><trkpt lat="43.93909662537196" lon="8.124723706181836"><ele>295.0</ele><time>2026-04-16T11:52:59Z</time></trkpt><trkpt lat="43.93902630686154" lon="8.124762489034316"><ele>295.0</ele><time>2026-04-16T11:53:00Z</time></trkpt><trkpt lat="43.93894826387489" lon="8.124821219568435"><ele>296.3333333333333</ele><time>2026-04-16T11:53:01Z</time></trkpt><trkpt lat="43.93887379468386" lon="8.124868918671737"><ele>297.66666666666663</ele><time>2026-04-16T11:53:02Z</time></trkpt><trkpt lat="43.938761543429514" lon="8.124920044177646"><ele>299.0</ele><time>2026-04-16T11:53:04Z</time></trkpt><trkpt lat="43.93873096248831" lon="8.125025884783128"><ele>300.3333333333333</ele><time>2026-04-16T11:53:05.999Z</time></trkpt><trkpt lat="43.93869617684852" lon="8.125115257489485"><ele>301.6666666666667</ele><time>2026-04-16T11:53:06.999Z</time></trkpt><trkpt lat="43.938648546206" lon="8.1252031929838"><ele>303.0</ele><time>2026-04-16T11:53:07.999Z</time></trkpt><trkpt lat="43.93860099950997" lon="8.125278720793558"><ele>300.1666666666667</ele><time>2026-04-16T11:53:08.999Z</time></trkpt><trkpt lat="43.93854982272023" lon="8.125352409647046"><ele>297.3333333333333</ele><time>2026-04-16T11:53:10Z</time></trkpt><trkpt lat="43.93842961416409" lon="8.125442108119968"><ele>294.5</ele><time>2026-04-16T11:53:12Z</time></trkpt><trkpt lat="43.93835912117805" lon="8.125410387750303"><ele>291.66666666666663</ele><time>2026-04-16T11:53:13Z</time></trkpt><trkpt lat="43.93830530502761" lon="8.12533917976964"><ele>288.8333333333333</ele><time>2026-04-16T11:53:14Z</time></trkpt><trkpt lat="43.93825006639834" lon="8.125280641459417"><ele>286.0</ele><time>2026-04-16T11:53:15Z</time></trkpt><trkpt lat="43.938188898439975" lon="8.125236959751932"><ele>286.0</ele><time>2026-04-16T11:53:16Z</time></trkpt><trkpt lat="43.93811542215723" lon="8.125215364673668"><ele>286.0</ele><time>2026-04-16T11:53:17Z</time></trkpt><trkpt lat="43.93803770231552" lon="8.125213989732636"><ele>286.0</ele><time>2026-04-16T11:53:18Z</time></trkpt><trkpt lat="43.93796678074005" lon="8.125208569198971"><ele>286.0</ele><time>2026-04-16T11:53:19Z</time></trkpt><trkpt lat="43.937896589913116" lon="8.125183490571855"><ele>286.0</ele><time>2026-04-16T11:53:20Z</time></trkpt><trkpt lat="43.937814065192406" lon="8.125224303348869"><ele>286.0</ele><time>2026-04-16T11:53:22Z</time></trkpt><trkpt lat="43.9377038522062" lon="8.125331679535702"><ele>286.0</ele><time>2026-04-16T11:53:24Z</time></trkpt><trkpt lat="43.937636642680765" lon="8.125380803755831"><ele>286.0</ele><time>2026-04-16T11:53:25Z</time></trkpt><trkpt lat="43.93757680183904" lon="8.125428463610355"><ele>286.0</ele><time>2026-04-16T11:53:26Z</time></trkpt><trkpt lat="43.937510292192414" lon="8.125487222527811"><ele>286.0</ele><time>2026-04-16T11:53:27Z</time></trkpt><trkpt lat="43.93745114089577" lon="8.125556247835853"><ele>286.0</ele><time>2026-04-16T11:53:28Z</time></trkpt><trkpt lat="43.93737994117831" lon="8.125623662793585"><ele>286.0</ele><time>2026-04-16T11:53:29Z</time></trkpt><trkpt lat="43.93731498339311" lon="8.125663145991593"><ele>282.8333333333333</ele><time>2026-04-16T11:53:30Z</time></trkpt><trkpt lat="43.93725184105575" lon="8.125746876811137"><ele>279.66666666666663</ele><time>2026-04-16T11:53:32Z</time></trkpt><trkpt lat="43.937351528445944" lon="8.1258125439848"><ele>276.5</ele><time>2026-04-16T11:53:34Z</time></trkpt><trkpt lat="43.93741565038399" lon="8.12579897976199"><ele>273.3333333333333</ele><time>2026-04-16T11:53:35Z</time></trkpt><trkpt lat="43.93748710077016" lon="8.125781467681291"><ele>270.1666666666667</ele><time>2026-04-16T11:53:36Z</time></trkpt><trkpt lat="43.937598957448174" lon="8.12578441224842"><ele>267.0</ele><time>2026-04-16T11:53:38Z</time></trkpt><trkpt lat="43.93766305120897" lon="8.125772697683662"><ele>267.0</ele><time>2026-04-16T11:53:39Z</time></trkpt><trkpt lat="43.937769158111486" lon="8.125825118771479"><ele>267.0</ele><time>2026-04-16T11:53:41Z</time></trkpt><trkpt lat="43.9378173781439" lon="8.125887488855753"><ele>267.0</ele><time>2026-04-16T11:53:42Z</time></trkpt><trkpt lat="43.93789146893631" lon="8.125936794555129"><ele>267.0</ele><time>2026-04-16T11:53:43Z</time></trkpt><trkpt lat="43.937945961120796" lon="8.125981262996309"><ele>267.0</ele><time>2026-04-16T11:53:44Z</time></trkpt><trkpt lat="43.93800214387848" lon="8.126045394732683"><ele>267.0</ele><time>2026-04-16T11:53:45Z</time></trkpt><trkpt lat="43.93808877751753" lon="8.126142576264135"><ele>267.0</ele><time>2026-04-16T11:53:47Z</time></trkpt><trkpt lat="43.938023531866136" lon="8.126181857407879"><ele>267.0</ele><time>2026-04-16T11:53:49Z</time></trkpt><trkpt lat="43.93795162492182" lon="8.126169642220944"><ele>267.0</ele><time>2026-04-16T11:53:50Z</time></trkpt><trkpt lat="43.93785445075255" lon="8.126170560616888"><ele>267.0</ele><time>2026-04-16T11:53:51Z</time></trkpt><trkpt lat="43.93779773515093" lon="8.126131644202863"><ele>267.0</ele><time>2026-04-16T11:53:52Z</time></trkpt><trkpt lat="43.93771608319001" lon="8.126092150866766"><ele>267.0</ele><time>2026-04-16T11:53:53Z</time></trkpt><trkpt lat="43.93764489750618" lon="8.126066946026617"><ele>267.0</ele><time>2026-04-16T11:53:54Z</time></trkpt><trkpt lat="43.93757187335521" lon="8.126029411607025"><ele>267.0</ele><time>2026-04-16T11:53:55Z</time></trkpt><trkpt lat="43.93748264524255" lon="8.126026282025917"><ele>267.0</ele><time>2026-04-16T11:53:56Z</time></trkpt><trkpt lat="43.937407409197334" lon="8.126067018505605"><ele>267.0</ele><time>2026-04-16T11:53:57Z</time></trkpt><trkpt lat="43.937320359128286" lon="8.126097951154698"><ele>267.0</ele><time>2026-04-16T11:53:58Z</time></trkpt><trkpt lat="43.93725568020954" lon="8.126117446646541"><ele>267.0</ele><time>2026-04-16T11:53:59Z</time></trkpt><trkpt lat="43.93715005447058" lon="8.126162662956771"><ele>266.8</ele><time>2026-04-16T11:54:02Z</time></trkpt><trkpt lat="43.937071853791515" lon="8.12620463952335"><ele>266.6</ele><time>2026-04-16T11:54:04Z</time></trkpt><trkpt lat="43.9369664061844" lon="8.126259339309543"><ele>266.40000000000003</ele><time>2026-04-16T11:54:07Z</time></trkpt><trkpt lat="43.93690161711581" lon="8.126294241673184"><ele>266.2</ele><time>2026-04-16T11:54:08Z</time></trkpt><trkpt lat="43.93676189583142" lon="8.126283400979847"><ele>266.0</ele><time>2026-04-16T11:54:10Z</time></trkpt><trkpt lat="43.9366934003497" lon="8.126323742695222"><ele>266.0</ele><time>2026-04-16T11:54:12Z</time></trkpt><trkpt lat="43.93673196237963" lon="8.126429481030035"><ele>266.0</ele><time>2026-04-16T11:54:14Z</time></trkpt><trkpt lat="43.93681344549085" lon="8.126532243485112"><ele>266.0</ele><time>2026-04-16T11:54:16Z</time></trkpt><trkpt lat="43.93688590838379" lon="8.126612467142898"><ele>266.0</ele><time>2026-04-16T11:54:18Z</time></trkpt><trkpt lat="43.936883759338905" lon="8.12672191769171"><ele>266.0</ele><time>2026-04-16T11:54:20Z</time></trkpt><trkpt lat="43.936884601638816" lon="8.126840590357302"><ele>262.83333333333337</ele><time>2026-04-16T11:54:23Z</time></trkpt><trkpt lat="43.93679862324768" lon="8.126903537117473"><ele>259.6666666666667</ele><time>2026-04-16T11:54:26Z</time></trkpt><trkpt lat="43.936732423718276" lon="8.126918682208036"><ele>256.5</ele><time>2026-04-16T11:54:29Z</time></trkpt><trkpt lat="43.93675063750238" lon="8.127017213021215"><ele>253.33333333333331</ele><time>2026-04-16T11:54:32Z</time></trkpt><trkpt lat="43.93678115727049" lon="8.127104650714651"><ele>250.16666666666666</ele><time>2026-04-16T11:54:35Z</time></trkpt><trkpt lat="43.936710658118386" lon="8.127217017436534"><ele>247.0</ele><time>2026-04-16T11:54:38Z</time></trkpt><trkpt lat="43.93664523752334" lon="8.127284399233003"><ele>245.66666666666666</ele><time>2026-04-16T11:54:39Z</time></trkpt><trkpt lat="43.93656197197728" lon="8.127325741088937"><ele>244.33333333333331</ele><time>2026-04-16T11:54:41Z</time></trkpt><trkpt lat="43.936515778435506" lon="8.12739105345714"><ele>243.0</ele><time>2026-04-16T11:54:43Z</time></trkpt><trkpt lat="43.93650653038924" lon="8.127521364451008"><ele>241.66666666666669</ele><time>2026-04-16T11:54:45Z</time></trkpt><trkpt lat="43.93652970512861" lon="8.127641262506312"><ele>240.33333333333334</ele><time>2026-04-16T11:54:48Z</time></trkpt><trkpt lat="43.93653559363863" lon="8.127747734784064"><ele>239.0</ele><time>2026-04-16T11:54:52Z</time></trkpt><trkpt lat="43.93648340328279" lon="8.127802405874728"><ele>235.50000000000003</ele><time>2026-04-16T11:54:54Z</time></trkpt><trkpt lat="43.93643507106048" lon="8.127893357978051"><ele>232.0</ele><time>2026-04-16T11:54:57Z</time></trkpt><trkpt lat="43.93638999750872" lon="8.127989146775105"><ele>228.5</ele><time>2026-04-16T11:54:59Z</time></trkpt><trkpt lat="43.93637965924805" lon="8.128098754860558"><ele>225.0</ele><time>2026-04-16T11:55:03Z</time></trkpt><trkpt lat="43.93633071767637" lon="8.12816888866209"><ele>221.50000000000003</ele><time>2026-04-16T11:55:05Z</time></trkpt><trkpt lat="43.93626573116229" lon="8.128236889347175"><ele>218.0</ele><time>2026-04-16T11:55:08Z</time></trkpt><trkpt lat="43.936220884679976" lon="8.128327002028186"><ele>214.33333333333334</ele><time>2026-04-16T11:55:11Z</time></trkpt><trkpt lat="43.936158962356934" lon="8.128379516027469"><ele>210.66666666666669</ele><time>2026-04-16T11:55:13Z</time></trkpt><trkpt lat="43.93610246075959" lon="8.12844901008487"><ele>207.0</ele><time>2026-04-16T11:55:15Z</time></trkpt><trkpt lat="43.936065250815396" lon="8.128525183146575"><ele>203.33333333333331</ele><time>2026-04-16T11:55:17Z</time></trkpt><trkpt lat="43.936011273684606" lon="8.128625654937814"><ele>199.66666666666666</ele><time>2026-04-16T11:55:19Z</time></trkpt><trkpt lat="43.93595309828455" lon="8.128720382623781"><ele>196.0</ele><time>2026-04-16T11:55:22Z</time></trkpt><trkpt lat="43.935917109567924" lon="8.128831883835984"><ele>196.0</ele><time>2026-04-16T11:55:24Z</time></trkpt><trkpt lat="43.93589681218113" lon="8.12893737562351"><ele>196.0</ele><time>2026-04-16T11:55:27Z</time></trkpt><trkpt lat="43.935868374536334" lon="8.129057989268034"><ele>196.0</ele><time>2026-04-16T11:55:33Z</time></trkpt><trkpt lat="43.93581857460954" lon="8.12916064745782"><ele>196.0</ele><time>2026-04-16T11:55:36Z</time></trkpt><trkpt lat="43.935863070287766" lon="8.129297020196384"><ele>196.0</ele><time>2026-04-16T11:55:40Z</time></trkpt><trkpt lat="43.93588595975904" lon="8.129416795771103"><ele>192.33333333333331</ele><time>2026-04-16T11:55:43Z</time></trkpt><trkpt lat="43.93594278759646" lon="8.129480731686167"><ele>188.66666666666666</ele><time>2026-04-16T11:55:46Z</time></trkpt><trkpt lat="43.935965923543534" lon="8.129671789136266"><ele>185.0</ele><time>2026-04-16T11:55:49Z</time></trkpt><trkpt lat="43.9359482951664" lon="8.129761091834219"><ele>181.33333333333331</ele><time>2026-04-16T11:55:50Z</time></trkpt><trkpt lat="43.93588575001104" lon="8.129826651246974"><ele>177.66666666666666</ele><time>2026-04-16T11:55:53Z</time></trkpt><trkpt lat="43.93590083377218" lon="8.12992894493833"><ele>174.0</ele><time>2026-04-16T11:55:56Z</time></trkpt><trkpt lat="43.93596073887744" lon="8.12999155418787"><ele>170.16666666666666</ele><time>2026-04-16T11:55:59Z</time></trkpt><trkpt lat="43.9360157406193" lon="8.130064388416516"><ele>166.33333333333334</ele><time>2026-04-16T11:56:02Z</time></trkpt><trkpt lat="43.9359730953307" lon="8.130138224889837"><ele>162.5</ele><time>2026-04-16T11:56:04Z</time></trkpt><trkpt lat="43.936021822340116" lon="8.130227867233042"><ele>158.66666666666669</ele><time>2026-04-16T11:56:07Z</time></trkpt><trkpt lat="43.93601729069354" lon="8.130347815163203"><ele>154.83333333333334</ele><time>2026-04-16T11:56:09Z</time></trkpt><trkpt lat="43.93597333407284" lon="8.130416755538945"><ele>151.0</ele><time>2026-04-16T11:56:10Z</time></trkpt><trkpt lat="43.935921821461655" lon="8.130523349569252"><ele>151.0</ele><time>2026-04-16T11:56:12Z</time></trkpt><trkpt lat="43.93593894947114" lon="8.13062103613125"><ele>151.0</ele><time>2026-04-16T11:56:14Z</time></trkpt><trkpt lat="43.93601401967666" lon="8.13065770097192"><ele>151.0</ele><time>2026-04-16T11:56:16Z</time></trkpt><trkpt lat="43.93606144895097" lon="8.130715923924221"><ele>151.0</ele><time>2026-04-16T11:56:18Z</time></trkpt><trkpt lat="43.93599558646598" lon="8.130815178500665"><ele>151.0</ele><time>2026-04-16T11:56:21Z</time></trkpt><trkpt lat="43.93598849521041" lon="8.130952977964041"><ele>151.0</ele><time>2026-04-16T11:56:24Z</time></trkpt><trkpt lat="43.9359212429592" lon="8.13099805645806"><ele>147.0</ele><time>2026-04-16T11:56:26Z</time></trkpt><trkpt lat="43.935861741871776" lon="8.13107648202313"><ele>143.0</ele><time>2026-04-16T11:56:29Z</time></trkpt><trkpt lat="43.93580762725873" lon="8.131163143796789"><ele>139.0</ele><time>2026-04-16T11:56:31Z</time></trkpt><trkpt lat="43.93584772564853" lon="8.131242399865458"><ele>135.0</ele><time>2026-04-16T11:56:35Z</time></trkpt><trkpt lat="43.93591668907291" lon="8.131296056759615"><ele>131.0</ele><time>2026-04-16T11:56:38Z</time></trkpt><trkpt lat="43.935862066700814" lon="8.131394936421426"><ele>127.0</ele><time>2026-04-16T11:56:41Z</time></trkpt><trkpt lat="43.93586079600187" lon="8.131512346713338"><ele>126.0</ele><time>2026-04-16T11:56:45Z</time></trkpt><trkpt lat="43.935750291381126" lon="8.13154334514515"><ele>124.99999999999999</ele><time>2026-04-16T11:56:49Z</time></trkpt><trkpt lat="43.93565495784114" lon="8.131507566843908"><ele>123.99999999999999</ele><time>2026-04-16T11:56:52Z</time></trkpt><trkpt lat="43.93562285037891" lon="8.13141583370734"><ele>123.0</ele><time>2026-04-16T11:56:54Z</time></trkpt><trkpt lat="43.93556714925942" lon="8.131352202860162"><ele>122.0</ele><time>2026-04-16T11:56:56Z</time></trkpt><trkpt lat="43.935523653263616" lon="8.131230256186038"><ele>121.99999999999999</ele><time>2026-04-16T11:56:58Z</time></trkpt><trkpt lat="43.935443657600324" lon="8.131126504996587"><ele>122.0</ele><time>2026-04-16T11:57:01Z</time></trkpt><trkpt lat="43.935377088079505" lon="8.131050198761118"><ele>122.0</ele><time>2026-04-16T11:57:03Z</time></trkpt><trkpt lat="43.93531496771989" lon="8.131002156997289"><ele>122.0</ele><time>2026-04-16T11:57:05Z</time></trkpt><trkpt lat="43.935243674267525" lon="8.130930094640354"><ele>121.99999999999999</ele><time>2026-04-16T11:57:07Z</time></trkpt><trkpt lat="43.935173005102506" lon="8.13089149984967"><ele>122.0</ele><time>2026-04-16T11:57:09Z</time></trkpt><trkpt lat="43.93509755936737" lon="8.130860871545213"><ele>123.49999999999999</ele><time>2026-04-16T11:57:11Z</time></trkpt><trkpt lat="43.93502263230939" lon="8.130821189935661"><ele>125.0</ele><time>2026-04-16T11:57:13Z</time></trkpt><trkpt lat="43.93493210712296" lon="8.13073784518813"><ele>126.5</ele><time>2026-04-16T11:57:15Z</time></trkpt><trkpt lat="43.93486672786522" lon="8.130662449855793"><ele>128.0</ele><time>2026-04-16T11:57:17.001Z</time></trkpt><trkpt lat="43.93482413728123" lon="8.130560908975669"><ele>129.5</ele><time>2026-04-16T11:57:19.001Z</time></trkpt><trkpt lat="43.934762975793504" lon="8.130471220999478"><ele>131.0</ele><time>2026-04-16T11:57:21.001Z</time></trkpt><trkpt lat="43.93472161526861" lon="8.13036530146456"><ele>131.0</ele><time>2026-04-16T11:57:23.001Z</time></trkpt><trkpt lat="43.93467343624338" lon="8.130274769482089"><ele>131.0</ele><time>2026-04-16T11:57:25.001Z</time></trkpt><trkpt lat="43.93464053343139" lon="8.130174701164743"><ele>131.0</ele><time>2026-04-16T11:57:27.001Z</time></trkpt><trkpt lat="43.934594233198276" lon="8.130095570281298"><ele>131.0</ele><time>2026-04-16T11:57:29.001Z</time></trkpt><trkpt lat="43.93455239219519" lon="8.130003339679368"><ele>131.0</ele><time>2026-04-16T11:57:31Z</time></trkpt><trkpt lat="43.934479644512685" lon="8.130058178981486"><ele>131.0</ele><time>2026-04-16T11:57:36Z</time></trkpt><trkpt lat="43.93440928684272" lon="8.130096040394061"><ele>131.0</ele><time>2026-04-16T11:57:39Z</time></trkpt><trkpt lat="43.93434656495333" lon="8.13011540834785"><ele>131.0</ele><time>2026-04-16T11:57:41Z</time></trkpt><trkpt lat="43.934257385316336" lon="8.130148114085097"><ele>131.0</ele><time>2026-04-16T11:57:44Z</time></trkpt><trkpt lat="43.93418654254655" lon="8.130085311593014"><ele>131.0</ele><time>2026-04-16T11:57:46Z</time></trkpt><trkpt lat="43.934130539961174" lon="8.130045072204599"><ele>131.0</ele><time>2026-04-16T11:57:48Z</time></trkpt><trkpt lat="43.93406815936268" lon="8.130015956314653"><ele>131.0</ele><time>2026-04-16T11:57:50Z</time></trkpt><trkpt lat="43.933989700972575" lon="8.129980885112863"><ele>129.83333333333331</ele><time>2026-04-16T11:57:53Z</time></trkpt><trkpt lat="43.93390978054626" lon="8.129917289307018"><ele>128.66666666666666</ele><time>2026-04-16T11:57:56Z</time></trkpt><trkpt lat="43.93382499422324" lon="8.129871635454155"><ele>127.5</ele><time>2026-04-16T11:57:59Z</time></trkpt><trkpt lat="43.93377942057934" lon="8.129806611982135"><ele>126.33333333333334</ele><time>2026-04-16T11:58:01Z</time></trkpt><trkpt lat="43.933719222088094" lon="8.129713364237151"><ele>125.16666666666667</ele><time>2026-04-16T11:58:04Z</time></trkpt><trkpt lat="43.933678975800184" lon="8.129642349242868"><ele>124.0</ele><time>2026-04-16T11:58:06Z</time></trkpt><trkpt lat="43.933654992541776" lon="8.129532970551084"><ele>128.0</ele><time>2026-04-16T11:58:09Z</time></trkpt><trkpt lat="43.93358923179924" lon="8.129455563555371"><ele>132.0</ele><time>2026-04-16T11:58:12Z</time></trkpt><trkpt lat="43.93356006118425" lon="8.129374526870777"><ele>136.0</ele><time>2026-04-16T11:58:15Z</time></trkpt><trkpt lat="43.93354071200554" lon="8.129264280205783"><ele>140.0</ele><time>2026-04-16T11:58:19Z</time></trkpt><trkpt lat="43.933533807692875" lon="8.129171862135992"><ele>144.0</ele><time>2026-04-16T11:58:22Z</time></trkpt><trkpt lat="43.93349204759134" lon="8.129075389495766"><ele>148.0</ele><time>2026-04-16T11:58:25Z</time></trkpt><trkpt lat="43.93347838256754" lon="8.12895670497254"><ele>148.66666666666669</ele><time>2026-04-16T11:58:28Z</time></trkpt><trkpt lat="43.9334474564491" lon="8.128849684655638"><ele>149.33333333333334</ele><time>2026-04-16T11:58:31Z</time></trkpt><trkpt lat="43.93340607854056" lon="8.128759112370306"><ele>150.0</ele><time>2026-04-16T11:58:33Z</time></trkpt><trkpt lat="43.93337696741399" lon="8.128562179564103"><ele>150.66666666666666</ele><time>2026-04-16T11:58:35Z</time></trkpt><trkpt lat="43.93339466257166" lon="8.128475180164905"><ele>151.33333333333331</ele><time>2026-04-16T11:58:37Z</time></trkpt><trkpt lat="43.93345879403001" lon="8.12852854358613"><ele>152.0</ele><time>2026-04-16T11:58:41Z</time></trkpt><trkpt lat="43.93351798832726" lon="8.128575350075144"><ele>154.5</ele><time>2026-04-16T11:58:44Z</time></trkpt><trkpt lat="43.93357205394455" lon="8.128641401440962"><ele>157.0</ele><time>2026-04-16T11:58:47Z</time></trkpt><trkpt lat="43.933651490179905" lon="8.128685771320603"><ele>159.5</ele><time>2026-04-16T11:58:50Z</time></trkpt><trkpt lat="43.933736032382626" lon="8.128718297318793"><ele>162.0</ele><time>2026-04-16T11:58:53Z</time></trkpt><trkpt lat="43.93381008620545" lon="8.128741874434212"><ele>164.5</ele><time>2026-04-16T11:58:56Z</time></trkpt><trkpt lat="43.93389101355019" lon="8.128797809435442"><ele>167.0</ele><time>2026-04-16T11:58:59Z</time></trkpt><trkpt lat="43.93395265417724" lon="8.128846087794127"><ele>167.0</ele><time>2026-04-16T11:59:02Z</time></trkpt><trkpt lat="43.93403494573533" lon="8.128851275603017"><ele>167.0</ele><time>2026-04-16T11:59:05Z</time></trkpt><trkpt lat="43.93411144081355" lon="8.128803840049532"><ele>167.0</ele><time>2026-04-16T11:59:07Z</time></trkpt><trkpt lat="43.93418723113465" lon="8.128748971918775"><ele>167.0</ele><time>2026-04-16T11:59:11Z</time></trkpt><trkpt lat="43.93425439358039" lon="8.128722673705246"><ele>167.0</ele><time>2026-04-16T11:59:13Z</time></trkpt><trkpt lat="43.93433416446837" lon="8.128657349105183"><ele>167.0</ele><time>2026-04-16T11:59:17Z</time></trkpt><trkpt lat="43.934393121744165" lon="8.128596304983345"><ele>167.5</ele><time>2026-04-16T11:59:20Z</time></trkpt><trkpt lat="43.934459067612806" lon="8.128575565043768"><ele>168.0</ele><time>2026-04-16T11:59:22Z</time></trkpt><trkpt lat="43.93451609682655" lon="8.128489695140079"><ele>168.5</ele><time>2026-04-16T11:59:25Z</time></trkpt><trkpt lat="43.93455721109894" lon="8.128421871618304"><ele>169.0</ele><time>2026-04-16T11:59:27Z</time></trkpt><trkpt lat="43.934617821840945" lon="8.128322664289612"><ele>169.5</ele><time>2026-04-16T11:59:29Z</time></trkpt><trkpt lat="43.93468241566776" lon="8.128263611646108"><ele>170.0</ele><time>2026-04-16T11:59:31Z</time></trkpt><trkpt lat="43.934739036892374" lon="8.12820438346274"><ele>173.4</ele><time>2026-04-16T11:59:33Z</time></trkpt><trkpt lat="43.934809457666006" lon="8.12812088874136"><ele>176.8</ele><time>2026-04-16T11:59:36Z</time></trkpt><trkpt lat="43.934907840427975" lon="8.128078377674399"><ele>180.2</ele><time>2026-04-16T11:59:38Z</time></trkpt><trkpt lat="43.935029232914715" lon="8.128050615731837"><ele>183.6</ele><time>2026-04-16T11:59:42Z</time></trkpt><trkpt lat="43.935099478459534" lon="8.128012878065382"><ele>187.0</ele><time>2026-04-16T11:59:44Z</time></trkpt><trkpt lat="43.93520625818272" lon="8.128017448573752"><ele>186.66666666666669</ele><time>2026-04-16T11:59:48Z</time></trkpt><trkpt lat="43.935256370133075" lon="8.128073876611602"><ele>186.33333333333334</ele><time>2026-04-16T11:59:51Z</time></trkpt><trkpt lat="43.93531569694452" lon="8.128128355250354"><ele>186.0</ele><time>2026-04-16T11:59:53Z</time></trkpt><trkpt lat="43.93536706876167" lon="8.128277731521662"><ele>185.66666666666666</ele><time>2026-04-16T11:59:56Z</time></trkpt><trkpt lat="43.93534113188977" lon="8.128425748709487"><ele>185.33333333333331</ele><time>2026-04-16T11:59:58Z</time></trkpt><trkpt lat="43.93534492855696" lon="8.128530877583358"><ele>185.0</ele><time>2026-04-16T12:00:00Z</time></trkpt><trkpt lat="43.93536198217157" lon="8.128630313814186"><ele>184.99999999999997</ele><time>2026-04-16T12:00:02Z</time></trkpt><trkpt lat="43.935377192422706" lon="8.128719901027445"><ele>185.0</ele><time>2026-04-16T12:00:04Z</time></trkpt><trkpt lat="43.93539537866655" lon="8.128812322219137"><ele>185.0</ele><time>2026-04-16T12:00:06Z</time></trkpt><trkpt lat="43.93542686245402" lon="8.128891856839543"><ele>185.0</ele><time>2026-04-16T12:00:08Z</time></trkpt><trkpt lat="43.93547508722085" lon="8.128975996569343"><ele>185.0</ele><time>2026-04-16T12:00:10Z</time></trkpt><trkpt lat="43.935523943930015" lon="8.129080841200647"><ele>184.99999999999997</ele><time>2026-04-16T12:00:13Z</time></trkpt><trkpt lat="43.935582717886476" lon="8.129121693831008"><ele>185.0</ele><time>2026-04-16T12:00:15Z</time></trkpt><trkpt lat="43.935647114277856" lon="8.12909479160516"><ele>185.0</ele><time>2026-04-16T12:00:17Z</time></trkpt><trkpt lat="43.93570465839119" lon="8.129019978865744"><ele>185.0</ele><time>2026-04-16T12:00:19Z</time></trkpt><trkpt lat="43.935682840280414" lon="8.128908781082998"><ele>185.0</ele><time>2026-04-16T12:00:21Z</time></trkpt><trkpt lat="43.93571787467381" lon="8.128820666634814"><ele>185.0</ele><time>2026-04-16T12:00:23Z</time></trkpt><trkpt lat="43.93574306912904" lon="8.128699973143087"><ele>185.0</ele><time>2026-04-16T12:00:26Z</time></trkpt><trkpt lat="43.93577656560138" lon="8.128592931215834"><ele>185.0</ele><time>2026-04-16T12:00:30Z</time></trkpt><trkpt lat="43.93578591800001" lon="8.128490291981075"><ele>185.0</ele><time>2026-04-16T12:00:33Z</time></trkpt><trkpt lat="43.93577665952746" lon="8.12837865772495"><ele>185.0</ele><time>2026-04-16T12:00:36Z</time></trkpt><trkpt lat="43.9357888273763" lon="8.12828621072882"><ele>185.0</ele><time>2026-04-16T12:00:39Z</time></trkpt><trkpt lat="43.93579942886603" lon="8.128172871895424"><ele>185.0</ele><time>2026-04-16T12:00:43Z</time></trkpt><trkpt lat="43.93580629046772" lon="8.128061290027826"><ele>185.0</ele><time>2026-04-16T12:00:47Z</time></trkpt><trkpt lat="43.935767458476555" lon="8.127955653536393"><ele>185.0</ele><time>2026-04-16T12:00:51Z</time></trkpt><trkpt lat="43.935692107681525" lon="8.127832579739339"><ele>187.16666666666666</ele><time>2026-04-16T12:00:54Z</time></trkpt><trkpt lat="43.93566121938222" lon="8.127732642067595"><ele>189.33333333333331</ele><time>2026-04-16T12:00:56Z</time></trkpt><trkpt lat="43.93561647788091" lon="8.127647848272906"><ele>191.5</ele><time>2026-04-16T12:00:57Z</time></trkpt><trkpt lat="43.9355433282427" lon="8.127581238197132"><ele>193.66666666666666</ele><time>2026-04-16T12:00:59Z</time></trkpt><trkpt lat="43.935497112370086" lon="8.127514400816974"><ele>195.83333333333334</ele><time>2026-04-16T12:01:01Z</time></trkpt><trkpt lat="43.93542755868059" lon="8.127412574534855"><ele>198.0</ele><time>2026-04-16T12:01:04Z</time></trkpt><trkpt lat="43.9353577185173" lon="8.127328674547318"><ele>199.66666666666666</ele><time>2026-04-16T12:01:06Z</time></trkpt><trkpt lat="43.93528201146545" lon="8.127320740941926"><ele>201.33333333333331</ele><time>2026-04-16T12:01:08Z</time></trkpt><trkpt lat="43.93521579785783" lon="8.127253730531146"><ele>203.0</ele><time>2026-04-16T12:01:10Z</time></trkpt><trkpt lat="43.93512459994154" lon="8.127187872436096"><ele>204.66666666666666</ele><time>2026-04-16T12:01:12Z</time></trkpt><trkpt lat="43.93504089897388" lon="8.127152968950806"><ele>206.33333333333331</ele><time>2026-04-16T12:01:15Z</time></trkpt><trkpt lat="43.934968565259304" lon="8.127143720513395"><ele>208.0</ele><time>2026-04-16T12:01:17Z</time></trkpt><trkpt lat="43.93490493551553" lon="8.127116059280446"><ele>207.99999999999997</ele><time>2026-04-16T12:01:19Z</time></trkpt><trkpt lat="43.934801077542815" lon="8.127111358125921"><ele>208.0</ele><time>2026-04-16T12:01:22Z</time></trkpt><trkpt lat="43.93469885460297" lon="8.127108861716698"><ele>208.0</ele><time>2026-04-16T12:01:25Z</time></trkpt><trkpt lat="43.93463208900973" lon="8.127129463643227"><ele>208.0</ele><time>2026-04-16T12:01:27Z</time></trkpt><trkpt lat="43.93456825610475" lon="8.12715253973586"><ele>207.99999999999997</ele><time>2026-04-16T12:01:29Z</time></trkpt><trkpt lat="43.934590362892656" lon="8.127259983486388"><ele>208.0</ele><time>2026-04-16T12:01:32Z</time></trkpt><trkpt lat="43.934507064277575" lon="8.127287619739565"><ele>208.0</ele><time>2026-04-16T12:01:35Z</time></trkpt><trkpt lat="43.93440571495102" lon="8.1273647077934"><ele>208.0</ele><time>2026-04-16T12:01:37Z</time></trkpt><trkpt lat="43.93434696498229" lon="8.127408645092416"><ele>208.0</ele><time>2026-04-16T12:01:38Z</time></trkpt><trkpt lat="43.934262510418996" lon="8.127464071980546"><ele>208.0</ele><time>2026-04-16T12:01:40Z</time></trkpt><trkpt lat="43.93416009932168" lon="8.127533416082612"><ele>208.0</ele><time>2026-04-16T12:01:42Z</time></trkpt><trkpt lat="43.93409707721994" lon="8.127456875956646"><ele>208.8</ele><time>2026-04-16T12:01:44Z</time></trkpt><trkpt lat="43.93402889842732" lon="8.127424116015861"><ele>209.60000000000002</ele><time>2026-04-16T12:01:47Z</time></trkpt><trkpt lat="43.93393096157508" lon="8.127313833972332"><ele>210.39999999999998</ele><time>2026-04-16T12:01:50Z</time></trkpt><trkpt lat="43.933861813481485" lon="8.127198600552257"><ele>211.2</ele><time>2026-04-16T12:01:52Z</time></trkpt><trkpt lat="43.933822863069885" lon="8.127124415637779"><ele>212.0</ele><time>2026-04-16T12:01:53Z</time></trkpt><trkpt lat="43.93377535168735" lon="8.127001580929027"><ele>212.00000000000003</ele><time>2026-04-16T12:01:55Z</time></trkpt><trkpt lat="43.93366644048457" lon="8.126981862387467"><ele>212.0</ele><time>2026-04-16T12:01:57Z</time></trkpt><trkpt lat="43.933590954966355" lon="8.12695339970373"><ele>212.0</ele><time>2026-04-16T12:01:59Z</time></trkpt><trkpt lat="43.933512620055275" lon="8.126904408856447"><ele>212.0</ele><time>2026-04-16T12:02:01Z</time></trkpt><trkpt lat="43.933432345416925" lon="8.126882822182612"><ele>212.00000000000003</ele><time>2026-04-16T12:02:03Z</time></trkpt><trkpt lat="43.93335613411352" lon="8.126860808511225"><ele>212.0</ele><time>2026-04-16T12:02:05Z</time></trkpt><trkpt lat="43.93328983419862" lon="8.126807244600817"><ele>213.33333333333334</ele><time>2026-04-16T12:02:07Z</time></trkpt><trkpt lat="43.93325482307601" lon="8.126703170677812"><ele>214.66666666666669</ele><time>2026-04-16T12:02:11Z</time></trkpt><trkpt lat="43.933215707155924" lon="8.126586091517463"><ele>216.0</ele><time>2026-04-16T12:02:14Z</time></trkpt><trkpt lat="43.93320342818872" lon="8.126495798851854"><ele>217.33333333333331</ele><time>2026-04-16T12:02:17Z</time></trkpt><trkpt lat="43.93320505339703" lon="8.12638902631325"><ele>218.66666666666666</ele><time>2026-04-16T12:02:20Z</time></trkpt><trkpt lat="43.93316540971957" lon="8.126319577713796"><ele>220.0</ele><time>2026-04-16T12:02:23Z</time></trkpt><trkpt lat="43.93307461515402" lon="8.126214779428924"><ele>220.0</ele><time>2026-04-16T12:02:26Z</time></trkpt><trkpt lat="43.933017036109774" lon="8.126169334974152"><ele>220.0</ele><time>2026-04-16T12:02:28Z</time></trkpt><trkpt lat="43.93301198364095" lon="8.126062386227886"><ele>220.0</ele><time>2026-04-16T12:02:29Z</time></trkpt><trkpt lat="43.932940017105274" lon="8.126012007851296"><ele>220.0</ele><time>2026-04-16T12:02:31Z</time></trkpt><trkpt lat="43.932766093437614" lon="8.125946113421671"><ele>220.0</ele><time>2026-04-16T12:02:32Z</time></trkpt><trkpt lat="43.93264518405445" lon="8.125878447516396"><ele>215.4</ele><time>2026-04-16T12:02:33Z</time></trkpt><trkpt lat="43.93253519678882" lon="8.125836023784567"><ele>210.8</ele><time>2026-04-16T12:02:34Z</time></trkpt><trkpt lat="43.93243936675235" lon="8.125794957595144"><ele>206.2</ele><time>2026-04-16T12:02:35Z</time></trkpt><trkpt lat="43.932336766797285" lon="8.12576299970713"><ele>201.6</ele><time>2026-04-16T12:02:36Z</time></trkpt><trkpt lat="43.93225750834125" lon="8.125742353817525"><ele>197.0</ele><time>2026-04-16T12:02:37Z</time></trkpt><trkpt lat="43.932178139059474" lon="8.125745966375893"><ele>197.00000000000003</ele><time>2026-04-16T12:02:38Z</time></trkpt><trkpt lat="43.93210068614207" lon="8.125752460910382"><ele>197.0</ele><time>2026-04-16T12:02:39Z</time></trkpt><trkpt lat="43.9320236503183" lon="8.125752364095057"><ele>197.0</ele><time>2026-04-16T12:02:40Z</time></trkpt><trkpt lat="43.931953105927974" lon="8.12578454319246"><ele>197.0</ele><time>2026-04-16T12:02:41Z</time></trkpt><trkpt lat="43.93187484671456" lon="8.125836949534099"><ele>197.00000000000003</ele><time>2026-04-16T12:02:42Z</time></trkpt><trkpt lat="43.9317975062865" lon="8.125899307070048"><ele>197.0</ele><time>2026-04-16T12:02:43Z</time></trkpt><trkpt lat="43.931728180761105" lon="8.125946176211318"><ele>197.00000000000003</ele><time>2026-04-16T12:02:44Z</time></trkpt><trkpt lat="43.93165372034351" lon="8.1259817604625"><ele>197.0</ele><time>2026-04-16T12:02:45Z</time></trkpt><trkpt lat="43.931592362514145" lon="8.126047542808331"><ele>197.0</ele><time>2026-04-16T12:02:46Z</time></trkpt><trkpt lat="43.93151810229244" lon="8.126105329298397"><ele>197.0</ele><time>2026-04-16T12:02:47Z</time></trkpt><trkpt lat="43.93146340574064" lon="8.126174216760989"><ele>197.00000000000003</ele><time>2026-04-16T12:02:48Z</time></trkpt><trkpt lat="43.93142073609919" lon="8.126257258843983"><ele>197.0</ele><time>2026-04-16T12:02:49Z</time></trkpt><trkpt lat="43.931370957510374" lon="8.126349527652504"><ele>197.0</ele><time>2026-04-16T12:02:50Z</time></trkpt><trkpt lat="43.93132654646774" lon="8.126467190102945"><ele>197.0</ele><time>2026-04-16T12:02:51Z</time></trkpt><trkpt lat="43.93132160774979" lon="8.126604168588823"><ele>197.0</ele><time>2026-04-16T12:02:52Z</time></trkpt><trkpt lat="43.93130535843797" lon="8.126729592432396"><ele>197.0</ele><time>2026-04-16T12:02:53Z</time></trkpt><trkpt lat="43.931307050830306" lon="8.126856037002737"><ele>197.0</ele><time>2026-04-16T12:02:54Z</time></trkpt><trkpt lat="43.931291164211224" lon="8.126960359413022"><ele>194.85714285714286</ele><time>2026-04-16T12:02:55Z</time></trkpt><trkpt lat="43.93127312741275" lon="8.127058002613406"><ele>192.71428571428572</ele><time>2026-04-16T12:02:56Z</time></trkpt><trkpt lat="43.9312048045004" lon="8.127103362085826"><ele>190.57142857142856</ele><time>2026-04-16T12:02:57Z</time></trkpt><trkpt lat="43.93114293844353" lon="8.127139617476024"><ele>188.42857142857144</ele><time>2026-04-16T12:02:58Z</time></trkpt><trkpt lat="43.931069105127015" lon="8.127204529450559"><ele>186.28571428571428</ele><time>2026-04-16T12:02:59Z</time></trkpt><trkpt lat="43.930992214217085" lon="8.12718685383452"><ele>184.14285714285714</ele><time>2026-04-16T12:03:00Z</time></trkpt><trkpt lat="43.930934979210065" lon="8.127136952322125"><ele>182.0</ele><time>2026-04-16T12:03:01Z</time></trkpt><trkpt lat="43.930871918078964" lon="8.127077375490076"><ele>182.0</ele><time>2026-04-16T12:03:02Z</time></trkpt><trkpt lat="43.930799228012894" lon="8.127038026246229"><ele>182.0</ele><time>2026-04-16T12:03:03Z</time></trkpt><trkpt lat="43.93073474455816" lon="8.127004780674307"><ele>182.0</ele><time>2026-04-16T12:03:04Z</time></trkpt><trkpt lat="43.930658178407896" lon="8.126967751755496"><ele>182.0</ele><time>2026-04-16T12:03:05Z</time></trkpt><trkpt lat="43.930578665153426" lon="8.126934781072423"><ele>182.0</ele><time>2026-04-16T12:03:06Z</time></trkpt><trkpt lat="43.93052240877528" lon="8.126894287407874"><ele>182.0</ele><time>2026-04-16T12:03:07Z</time></trkpt><trkpt lat="43.93045006311553" lon="8.12686043293205"><ele>182.0</ele><time>2026-04-16T12:03:09Z</time></trkpt><trkpt lat="43.9305079579448" lon="8.126675712757061"><ele>182.0</ele><time>2026-04-16T12:03:11Z</time></trkpt><trkpt lat="43.93050612034999" lon="8.126585397674456"><ele>182.0</ele><time>2026-04-16T12:03:12Z</time></trkpt><trkpt lat="43.93050152365272" lon="8.126492196570753"><ele>182.0</ele><time>2026-04-16T12:03:13Z</time></trkpt><trkpt lat="43.930496663935344" lon="8.126381436789673"><ele>182.0</ele><time>2026-04-16T12:03:18Z</time></trkpt><trkpt lat="43.930482913823546" lon="8.126269329130746"><ele>182.0</ele><time>2026-04-16T12:03:21Z</time></trkpt><trkpt lat="43.93048505072165" lon="8.126163826795993"><ele>184.39999999999998</ele><time>2026-04-16T12:03:23Z</time></trkpt><trkpt lat="43.93046375591612" lon="8.126074345079545"><ele>186.79999999999998</ele><time>2026-04-16T12:03:25Z</time></trkpt><trkpt lat="43.9304486999045" lon="8.125937341369152"><ele>189.2</ele><time>2026-04-16T12:03:26Z</time></trkpt><trkpt lat="43.93040987063166" lon="8.125806472461749"><ele>191.6</ele><time>2026-04-16T12:03:27Z</time></trkpt><trkpt lat="43.930371239179614" lon="8.125664237010378"><ele>194.0</ele><time>2026-04-16T12:03:29Z</time></trkpt><trkpt lat="43.930325920049086" lon="8.125570466265463"><ele>194.39999999999998</ele><time>2026-04-16T12:03:32Z</time></trkpt><trkpt lat="43.93029210349218" lon="8.125491154578317"><ele>194.8</ele><time>2026-04-16T12:03:34Z</time></trkpt><trkpt lat="43.93024780944077" lon="8.125383086346012"><ele>195.2</ele><time>2026-04-16T12:03:37Z</time></trkpt><trkpt lat="43.93018947948123" lon="8.125256225334546"><ele>195.60000000000002</ele><time>2026-04-16T12:03:39Z</time></trkpt><trkpt lat="43.93012890931452" lon="8.125118029905394"><ele>196.0</ele><time>2026-04-16T12:03:41Z</time></trkpt><trkpt lat="43.930086452783385" lon="8.125023772246783"><ele>193.33333333333331</ele><time>2026-04-16T12:03:43Z</time></trkpt><trkpt lat="43.930042243258995" lon="8.124950502078535"><ele>190.66666666666666</ele><time>2026-04-16T12:03:45Z</time></trkpt><trkpt lat="43.93000462207541" lon="8.124866962035583"><ele>188.0</ele><time>2026-04-16T12:03:47Z</time></trkpt><trkpt lat="43.92994227965606" lon="8.124753449941622"><ele>185.33333333333331</ele><time>2026-04-16T12:03:50Z</time></trkpt><trkpt lat="43.92986371238859" lon="8.124660075658431"><ele>182.66666666666666</ele><time>2026-04-16T12:03:52Z</time></trkpt><trkpt lat="43.92981460191194" lon="8.124590769508641"><ele>180.0</ele><time>2026-04-16T12:03:53Z</time></trkpt><trkpt lat="43.929758580570265" lon="8.124530249729286"><ele>179.16666666666666</ele><time>2026-04-16T12:03:54Z</time></trkpt><trkpt lat="43.929706438153666" lon="8.124465051997385"><ele>178.33333333333334</ele><time>2026-04-16T12:03:55Z</time></trkpt><trkpt lat="43.92965397048103" lon="8.12438682313371"><ele>177.5</ele><time>2026-04-16T12:03:56Z</time></trkpt><trkpt lat="43.92961543618476" lon="8.124291298921403"><ele>176.66666666666669</ele><time>2026-04-16T12:03:57Z</time></trkpt><trkpt lat="43.929588091054775" lon="8.124188518239627"><ele>175.83333333333334</ele><time>2026-04-16T12:03:58Z</time></trkpt><trkpt lat="43.92953672181516" lon="8.12409334030303"><ele>175.0</ele><time>2026-04-16T12:03:59Z</time></trkpt><trkpt lat="43.92948424286519" lon="8.123987978153348"><ele>172.4</ele><time>2026-04-16T12:04:00Z</time></trkpt><trkpt lat="43.929432985626484" lon="8.123843732817289"><ele>169.8</ele><time>2026-04-16T12:04:01Z</time></trkpt><trkpt lat="43.92938538584053" lon="8.123718670391"><ele>167.2</ele><time>2026-04-16T12:04:02Z</time></trkpt><trkpt lat="43.92933741234555" lon="8.123597172196531"><ele>164.6</ele><time>2026-04-16T12:04:03Z</time></trkpt><trkpt lat="43.929284549820004" lon="8.123475722814964"><ele>162.0</ele><time>2026-04-16T12:04:04Z</time></trkpt><trkpt lat="43.92924827644088" lon="8.12334326045563"><ele>160.6</ele><time>2026-04-16T12:04:05Z</time></trkpt><trkpt lat="43.929186293845746" lon="8.123237737556027"><ele>159.2</ele><time>2026-04-16T12:04:06Z</time></trkpt><trkpt lat="43.92915661924001" lon="8.123118188286625"><ele>157.8</ele><time>2026-04-16T12:04:07Z</time></trkpt><trkpt lat="43.929120156343835" lon="8.123025505508398"><ele>156.4</ele><time>2026-04-16T12:04:08Z</time></trkpt><trkpt lat="43.9290669247167" lon="8.122913587418813"><ele>155.0</ele><time>2026-04-16T12:04:09Z</time></trkpt><trkpt lat="43.92904144548328" lon="8.122783450825777"><ele>154.6</ele><time>2026-04-16T12:04:10Z</time></trkpt><trkpt lat="43.92902562390183" lon="8.122683008013338"><ele>154.2</ele><time>2026-04-16T12:04:11Z</time></trkpt><trkpt lat="43.92902738314826" lon="8.122574333451999"><ele>153.8</ele><time>2026-04-16T12:04:12Z</time></trkpt><trkpt lat="43.9290167516831" lon="8.122448527516227"><ele>153.4</ele><time>2026-04-16T12:04:13Z</time></trkpt><trkpt lat="43.92899439946587" lon="8.122325611959793"><ele>153.0</ele><time>2026-04-16T12:04:14Z</time></trkpt><trkpt lat="43.92890915276985" lon="8.122120061473638"><ele>150.8</ele><time>2026-04-16T12:04:16Z</time></trkpt><trkpt lat="43.928837292193016" lon="8.122003477328297"><ele>148.60000000000002</ele><time>2026-04-16T12:04:17Z</time></trkpt><trkpt lat="43.928778592198526" lon="8.121906026143648"><ele>146.39999999999998</ele><time>2026-04-16T12:04:18Z</time></trkpt><trkpt lat="43.92872956856789" lon="8.121811649458383"><ele>144.2</ele><time>2026-04-16T12:04:19Z</time></trkpt><trkpt lat="43.92868335727198" lon="8.121688249359051"><ele>142.0</ele><time>2026-04-16T12:04:20Z</time></trkpt><trkpt lat="43.928646348842705" lon="8.12156453305041"><ele>139.0</ele><time>2026-04-16T12:04:21Z</time></trkpt><trkpt lat="43.92861110608015" lon="8.121439630814272"><ele>136.0</ele><time>2026-04-16T12:04:22Z</time></trkpt><trkpt lat="43.92857068801825" lon="8.121345488951661"><ele>133.0</ele><time>2026-04-16T12:04:23Z</time></trkpt><trkpt lat="43.92853718970486" lon="8.121215527514725"><ele>130.0</ele><time>2026-04-16T12:04:24Z</time></trkpt><trkpt lat="43.92849844373355" lon="8.12110601730203"><ele>127.0</ele><time>2026-04-16T12:04:25Z</time></trkpt><trkpt lat="43.92844984322476" lon="8.121005072634338"><ele>127.0</ele><time>2026-04-16T12:04:26Z</time></trkpt><trkpt lat="43.92842660721089" lon="8.120880591136574"><ele>126.99999999999999</ele><time>2026-04-16T12:04:27Z</time></trkpt><trkpt lat="43.9284025423389" lon="8.120770676843444"><ele>126.99999999999999</ele><time>2026-04-16T12:04:28Z</time></trkpt><trkpt lat="43.92838123285094" lon="8.120672997689228"><ele>127.0</ele><time>2026-04-16T12:04:29Z</time></trkpt><trkpt lat="43.92835792613282" lon="8.120545453991513"><ele>127.0</ele><time>2026-04-16T12:04:30Z</time></trkpt><trkpt lat="43.92833507233279" lon="8.120401309035318"><ele>126.39999999999999</ele><time>2026-04-16T12:04:31Z</time></trkpt><trkpt lat="43.92831766804586" lon="8.120260958097163"><ele>125.79999999999998</ele><time>2026-04-16T12:04:32Z</time></trkpt><trkpt lat="43.928301780109955" lon="8.120123617771993"><ele>125.2</ele><time>2026-04-16T12:04:33Z</time></trkpt><trkpt lat="43.928290306337715" lon="8.119999070326596"><ele>124.6</ele><time>2026-04-16T12:04:34Z</time></trkpt><trkpt lat="43.928282365805885" lon="8.119881503602913"><ele>124.0</ele><time>2026-04-16T12:04:35Z</time></trkpt><trkpt lat="43.92827893844167" lon="8.119749629833324"><ele>122.16666666666667</ele><time>2026-04-16T12:04:36Z</time></trkpt><trkpt lat="43.92828526918477" lon="8.119656502521085"><ele>120.33333333333334</ele><time>2026-04-16T12:04:37Z</time></trkpt><trkpt lat="43.92830687729537" lon="8.119552491062642"><ele>118.5</ele><time>2026-04-16T12:04:38Z</time></trkpt><trkpt lat="43.928368498416624" lon="8.1194689014856"><ele>116.66666666666666</ele><time>2026-04-16T12:04:40Z</time></trkpt><trkpt lat="43.92843387958022" lon="8.119456221257453"><ele>114.83333333333333</ele><time>2026-04-16T12:04:42Z</time></trkpt><trkpt lat="43.928508513984404" lon="8.1194493385224"><ele>113.0</ele><time>2026-04-16T12:04:44Z</time></trkpt><trkpt lat="43.92861287425258" lon="8.119475135742661"><ele>113.2</ele><time>2026-04-16T12:04:46Z</time></trkpt><trkpt lat="43.928706774700395" lon="8.11957011290759"><ele>113.4</ele><time>2026-04-16T12:04:48Z</time></trkpt><trkpt lat="43.92875472839097" lon="8.119658700899278"><ele>113.60000000000001</ele><time>2026-04-16T12:04:49Z</time></trkpt><trkpt lat="43.92879477352007" lon="8.119737486858142"><ele>113.80000000000001</ele><time>2026-04-16T12:04:50Z</time></trkpt><trkpt lat="43.92881061838293" lon="8.119859523858958"><ele>114.0</ele><time>2026-04-16T12:04:51Z</time></trkpt><trkpt lat="43.92884696459439" lon="8.119997093548259"><ele>114.0</ele><time>2026-04-16T12:04:52Z</time></trkpt><trkpt lat="43.92886976060431" lon="8.120147516489581"><ele>114.0</ele><time>2026-04-16T12:04:54Z</time></trkpt><trkpt lat="43.92897447902927" lon="8.120241419398237"><ele>114.0</ele><time>2026-04-16T12:04:56Z</time></trkpt><trkpt lat="43.929065573547085" lon="8.120301661715414"><ele>114.0</ele><time>2026-04-16T12:04:58Z</time></trkpt><trkpt lat="43.92913494216962" lon="8.120415566453518"><ele>114.0</ele><time>2026-04-16T12:05:00Z</time></trkpt><trkpt lat="43.92916224714515" lon="8.12058783316493"><ele>114.0</ele><time>2026-04-16T12:05:02Z</time></trkpt><trkpt lat="43.92920754522693" lon="8.120714889386047"><ele>114.0</ele><time>2026-04-16T12:05:04Z</time></trkpt><trkpt lat="43.929262653940484" lon="8.120864389314692"><ele>114.0</ele><time>2026-04-16T12:05:06Z</time></trkpt><trkpt lat="43.92929934076226" lon="8.120938381566699"><ele>114.0</ele><time>2026-04-16T12:05:07Z</time></trkpt><trkpt lat="43.929364576158214" lon="8.121041001803968"><ele>114.0</ele><time>2026-04-16T12:05:09Z</time></trkpt><trkpt lat="43.929430262762374" lon="8.121161769208102"><ele>112.5</ele><time>2026-04-16T12:05:11Z</time></trkpt><trkpt lat="43.929520231565476" lon="8.121229599590503"><ele>111.0</ele><time>2026-04-16T12:05:13Z</time></trkpt><trkpt lat="43.92958775176537" lon="8.121180925421308"><ele>109.5</ele><time>2026-04-16T12:05:15Z</time></trkpt><trkpt lat="43.92973944256549" lon="8.12105845548157"><ele>108.0</ele><time>2026-04-16T12:05:18Z</time></trkpt><trkpt lat="43.92977275516176" lon="8.120727433975263"><ele>108.0</ele><time>2026-04-16T12:05:21Z</time></trkpt><trkpt lat="43.929806895876354" lon="8.12062873072572"><ele>108.00000000000001</ele><time>2026-04-16T12:05:22Z</time></trkpt><trkpt lat="43.929858933250514" lon="8.120466949238374"><ele>108.00000000000001</ele><time>2026-04-16T12:05:23Z</time></trkpt><trkpt lat="43.929893327835366" lon="8.120370676087894"><ele>108.0</ele><time>2026-04-16T12:05:24Z</time></trkpt><trkpt lat="43.929856145397224" lon="8.120244608411873"><ele>108.0</ele><time>2026-04-16T12:05:25Z</time></trkpt><trkpt lat="43.9299094778426" lon="8.120134159178027"><ele>108.0</ele><time>2026-04-16T12:05:27Z</time></trkpt><trkpt lat="43.92993708977453" lon="8.120043280740932"><ele>108.0</ele><time>2026-04-16T12:05:29Z</time></trkpt><trkpt lat="43.930021928543574" lon="8.120004385890846"><ele>108.0</ele><time>2026-04-16T12:05:31Z</time></trkpt><trkpt lat="43.930031740379405" lon="8.119910243593836"><ele>108.0</ele><time>2026-04-16T12:05:33Z</time></trkpt><trkpt lat="43.93004845439586" lon="8.119824137208742"><ele>108.0</ele><time>2026-04-16T12:05:35Z</time></trkpt><trkpt lat="43.92998940351715" lon="8.119783715522814"><ele>108.0</ele><time>2026-04-16T12:05:37Z</time></trkpt><trkpt lat="43.9300336142155" lon="8.119692074047265"><ele>108.0</ele><time>2026-04-16T12:05:39Z</time></trkpt><trkpt lat="43.9299620024201" lon="8.119618265698694"><ele>104.66666666666667</ele><time>2026-04-16T12:05:42Z</time></trkpt><trkpt lat="43.92994528553975" lon="8.119516246193738"><ele>101.33333333333333</ele><time>2026-04-16T12:05:44Z</time></trkpt><trkpt lat="43.92996027590827" lon="8.119354611593415"><ele>98.0</ele><time>2026-04-16T12:05:46Z</time></trkpt><trkpt lat="43.92996548266018" lon="8.119234679509166"><ele>94.66666666666666</ele><time>2026-04-16T12:05:48Z</time></trkpt><trkpt lat="43.930018618052856" lon="8.119147127082416"><ele>91.33333333333333</ele><time>2026-04-16T12:05:50Z</time></trkpt><trkpt lat="43.93005296611054" lon="8.11907032633277"><ele>88.0</ele><time>2026-04-16T12:05:51Z</time></trkpt><trkpt lat="43.929997163524554" lon="8.11896154156557"><ele>88.0</ele><time>2026-04-16T12:05:53Z</time></trkpt><trkpt lat="43.92992863756965" lon="8.118920109132052"><ele>88.0</ele><time>2026-04-16T12:05:55Z</time></trkpt><trkpt lat="43.929844390301525" lon="8.119054854565038"><ele>88.0</ele><time>2026-04-16T12:05:57Z</time></trkpt><trkpt lat="43.92977151700555" lon="8.119127605270595"><ele>88.0</ele><time>2026-04-16T12:05:59Z</time></trkpt><trkpt lat="43.92975683250044" lon="8.118987619491358"><ele>88.0</ele><time>2026-04-16T12:06:02Z</time></trkpt><trkpt lat="43.92977919459352" lon="8.118838937507277"><ele>85.16666666666666</ele><time>2026-04-16T12:06:04Z</time></trkpt><trkpt lat="43.92982573212641" lon="8.118732951946333"><ele>82.33333333333333</ele><time>2026-04-16T12:06:05Z</time></trkpt><trkpt lat="43.929882743461995" lon="8.118634921082444"><ele>79.5</ele><time>2026-04-16T12:06:07Z</time></trkpt><trkpt lat="43.92985685982444" lon="8.118554335776814"><ele>76.66666666666667</ele><time>2026-04-16T12:06:13Z</time></trkpt><trkpt lat="43.92979938312504" lon="8.118486195968023"><ele>73.83333333333334</ele><time>2026-04-16T12:06:16Z</time></trkpt><trkpt lat="43.92979707968623" lon="8.118372786433513"><ele>71.0</ele><time>2026-04-16T12:06:19Z</time></trkpt><trkpt lat="43.929866143786306" lon="8.118263263542543"><ele>70.33333333333334</ele><time>2026-04-16T12:06:21Z</time></trkpt><trkpt lat="43.929861024740596" lon="8.118161215167772"><ele>69.66666666666667</ele><time>2026-04-16T12:06:23Z</time></trkpt><trkpt lat="43.92978618156353" lon="8.118183622464455"><ele>69.0</ele><time>2026-04-16T12:06:25Z</time></trkpt><trkpt lat="43.929760606031984" lon="8.11808144068951"><ele>68.33333333333333</ele><time>2026-04-16T12:06:29Z</time></trkpt><trkpt lat="43.92974087638114" lon="8.117964074167736"><ele>67.66666666666666</ele><time>2026-04-16T12:06:32Z</time></trkpt><trkpt lat="43.92967321281901" lon="8.117882229617202"><ele>67.0</ele><time>2026-04-16T12:06:34Z</time></trkpt><trkpt lat="43.92960197719864" lon="8.117832153151294"><ele>67.0</ele><time>2026-04-16T12:06:36Z</time></trkpt><trkpt lat="43.92966637902848" lon="8.117740231722049"><ele>67.0</ele><time>2026-04-16T12:06:39Z</time></trkpt><trkpt lat="43.92967692851626" lon="8.117645405906307"><ele>67.0</ele><time>2026-04-16T12:06:40Z</time></trkpt><trkpt lat="43.929681705970104" lon="8.117529241146288"><ele>67.0</ele><time>2026-04-16T12:06:42Z</time></trkpt><trkpt lat="43.9296566296808" lon="8.11743254414435"><ele>67.0</ele><time>2026-04-16T12:06:46Z</time></trkpt><trkpt lat="43.9295773332178" lon="8.11740045066632"><ele>67.0</ele><time>2026-04-16T12:06:48Z</time></trkpt><trkpt lat="43.9294787706618" lon="8.11736012382098"><ele>68.0</ele><time>2026-04-16T12:06:51Z</time></trkpt><trkpt lat="43.92938265227074" lon="8.117283562632256"><ele>69.0</ele><time>2026-04-16T12:06:53Z</time></trkpt><trkpt lat="43.92929406037062" lon="8.117232163068882"><ele>70.0</ele><time>2026-04-16T12:06:56Z</time></trkpt><trkpt lat="43.92921329169963" lon="8.117206349580869"><ele>71.0</ele><time>2026-04-16T12:06:58Z</time></trkpt><trkpt lat="43.92910439572724" lon="8.117197850932213"><ele>72.0</ele><time>2026-04-16T12:07:00Z</time></trkpt><trkpt lat="43.929018639665166" lon="8.117183592715222"><ele>72.0</ele><time>2026-04-16T12:07:02Z</time></trkpt><trkpt lat="43.92893414337782" lon="8.11709786526464"><ele>72.0</ele><time>2026-04-16T12:07:05Z</time></trkpt><trkpt lat="43.92886072071674" lon="8.117021905737252"><ele>72.0</ele><time>2026-04-16T12:07:07Z</time></trkpt><trkpt lat="43.92877235705614" lon="8.117059789280562"><ele>72.0</ele><time>2026-04-16T12:07:09Z</time></trkpt><trkpt lat="43.92871026378036" lon="8.116931478750733"><ele>72.0</ele><time>2026-04-16T12:07:11Z</time></trkpt><trkpt lat="43.92862726534757" lon="8.116919299796093"><ele>72.0</ele><time>2026-04-16T12:07:13Z</time></trkpt><trkpt lat="43.928536722492765" lon="8.116858615931255"><ele>72.0</ele><time>2026-04-16T12:07:15Z</time></trkpt><trkpt lat="43.92847333184822" lon="8.11686315375699"><ele>72.0</ele><time>2026-04-16T12:07:18Z</time></trkpt><trkpt lat="43.928414381777614" lon="8.116708610399666"><ele>72.0</ele><time>2026-04-16T12:07:21Z</time></trkpt><trkpt lat="43.92836150489936" lon="8.11663178796413"><ele>72.0</ele><time>2026-04-16T12:07:23Z</time></trkpt><trkpt lat="43.92828701984944" lon="8.116688960634256"><ele>68.8</ele><time>2026-04-16T12:07:24Z</time></trkpt><trkpt lat="43.928202162719714" lon="8.11671290013517"><ele>65.6</ele><time>2026-04-16T12:07:25Z</time></trkpt><trkpt lat="43.92811574609973" lon="8.116728300681789"><ele>62.39999999999999</ele><time>2026-04-16T12:07:26Z</time></trkpt><trkpt lat="43.928030348684835" lon="8.116748191693599"><ele>59.199999999999996</ele><time>2026-04-16T12:07:27Z</time></trkpt><trkpt lat="43.92791777899591" lon="8.116773891673883"><ele>56.0</ele><time>2026-04-16T12:07:28Z</time></trkpt><trkpt lat="43.92777506887103" lon="8.116819162800123"><ele>56.0</ele><time>2026-04-16T12:07:30Z</time></trkpt><trkpt lat="43.927574517475264" lon="8.116745344231727"><ele>56.0</ele><time>2026-04-16T12:07:32Z</time></trkpt><trkpt lat="43.92750597706544" lon="8.116752499793554"><ele>56.0</ele><time>2026-04-16T12:07:33Z</time></trkpt><trkpt lat="43.92742643368993" lon="8.116684001002785"><ele>56.0</ele><time>2026-04-16T12:07:34Z</time></trkpt><trkpt lat="43.927349217768196" lon="8.11671172848234"><ele>54.199999999999996</ele><time>2026-04-16T12:07:35Z</time></trkpt><trkpt lat="43.927262454206826" lon="8.116648710903354"><ele>52.39999999999999</ele><time>2026-04-16T12:07:36Z</time></trkpt><trkpt lat="43.92715680862683" lon="8.116631155001977"><ele>50.6</ele><time>2026-04-16T12:07:38Z</time></trkpt><trkpt lat="43.92705225955817" lon="8.116529515854396"><ele>48.8</ele><time>2026-04-16T12:07:40Z</time></trkpt><trkpt lat="43.92696007521981" lon="8.116552933841875"><ele>47.0</ele><time>2026-04-16T12:07:45Z</time></trkpt><trkpt lat="43.9269041513746" lon="8.116492808860023"><ele>44.83333333333333</ele><time>2026-04-16T12:07:47Z</time></trkpt><trkpt lat="43.926802931847526" lon="8.116525536169158"><ele>42.666666666666664</ele><time>2026-04-16T12:07:48Z</time></trkpt><trkpt lat="43.92671011799176" lon="8.116575845006583"><ele>40.5</ele><time>2026-04-16T12:07:51Z</time></trkpt><trkpt lat="43.926642068321584" lon="8.116619448498414"><ele>38.333333333333336</ele><time>2026-04-16T12:07:53Z</time></trkpt><trkpt lat="43.926575224880956" lon="8.116676571327206"><ele>36.16666666666667</ele><time>2026-04-16T12:07:55Z</time></trkpt><trkpt lat="43.926509423039064" lon="8.116671474624187"><ele>34.0</ele><time>2026-04-16T12:07:57Z</time></trkpt><trkpt lat="43.92641026880311" lon="8.11672285491011"><ele>34.0</ele><time>2026-04-16T12:08:01Z</time></trkpt><trkpt lat="43.926312830087255" lon="8.116673762891194"><ele>34.0</ele><time>2026-04-16T12:08:03Z</time></trkpt><trkpt lat="43.926239618464166" lon="8.116700995379679"><ele>34.0</ele><time>2026-04-16T12:08:04Z</time></trkpt><trkpt lat="43.92617419944787" lon="8.11679514995181"><ele>34.0</ele><time>2026-04-16T12:08:05Z</time></trkpt><trkpt lat="43.926046189574116" lon="8.116851861739018"><ele>34.0</ele><time>2026-04-16T12:08:07Z</time></trkpt><trkpt lat="43.9259644852561" lon="8.116910920364019"><ele>34.0</ele><time>2026-04-16T12:08:08Z</time></trkpt><trkpt lat="43.92590185477653" lon="8.116931696979144"><ele>34.0</ele><time>2026-04-16T12:08:09Z</time></trkpt><trkpt lat="43.92583481037195" lon="8.116950724751721"><ele>34.0</ele><time>2026-04-16T12:08:10Z</time></trkpt><trkpt lat="43.9257409932441" lon="8.117004357651364"><ele>34.0</ele><time>2026-04-16T12:08:12Z</time></trkpt><trkpt lat="43.92570622372818" lon="8.117083816465513"><ele>34.0</ele><time>2026-04-16T12:08:14Z</time></trkpt><trkpt lat="43.92569050779836" lon="8.11718164786196"><ele>34.0</ele><time>2026-04-16T12:08:16Z</time></trkpt><trkpt lat="43.92560304317726" lon="8.117197811411947"><ele>32.2</ele><time>2026-04-16T12:08:18Z</time></trkpt><trkpt lat="43.9255697468038" lon="8.117055578623107"><ele>30.4</ele><time>2026-04-16T12:08:20Z</time></trkpt><trkpt lat="43.92552809439923" lon="8.11692102129156"><ele>28.6</ele><time>2026-04-16T12:08:22Z</time></trkpt><trkpt lat="43.92547980615184" lon="8.116808780761602"><ele>26.8</ele><time>2026-04-16T12:08:24Z</time></trkpt><trkpt lat="43.92542318346864" lon="8.116676317509167"><ele>25.0</ele><time>2026-04-16T12:08:26Z</time></trkpt><trkpt lat="43.92538219524942" lon="8.116546633531861"><ele>30.0</ele><time>2026-04-16T12:08:29Z</time></trkpt><trkpt lat="43.92531465254097" lon="8.116478167880647"><ele>35.0</ele><time>2026-04-16T12:08:32Z</time></trkpt><trkpt lat="43.92526724223561" lon="8.116349571372298"><ele>40.0</ele><time>2026-04-16T12:08:35Z</time></trkpt><trkpt lat="43.92519845742379" lon="8.116234535880983"><ele>45.0</ele><time>2026-04-16T12:08:38Z</time></trkpt><trkpt lat="43.92519925724392" lon="8.116125204032095"><ele>50.0</ele><time>2026-04-16T12:08:40Z</time></trkpt><trkpt lat="43.92515766390687" lon="8.116036246961649"><ele>50.0</ele><time>2026-04-16T12:08:43Z</time></trkpt><trkpt lat="43.9251524415191" lon="8.11591695519901"><ele>50.0</ele><time>2026-04-16T12:08:46Z</time></trkpt><trkpt lat="43.92512798059031" lon="8.115824043530955"><ele>50.0</ele><time>2026-04-16T12:08:49Z</time></trkpt><trkpt lat="43.92512411138949" lon="8.115727567499613"><ele>50.0</ele><time>2026-04-16T12:08:52Z</time></trkpt><trkpt lat="43.92509097409728" lon="8.115624091792135"><ele>50.0</ele><time>2026-04-16T12:08:55Z</time></trkpt><trkpt lat="43.92479104551339" lon="8.114559589845957"><ele>45.66666666666667</ele><time>2026-04-16T12:08:57Z</time></trkpt><trkpt lat="43.924767450952004" lon="8.114477315802763"><ele>41.333333333333336</ele><time>2026-04-16T12:08:58Z</time></trkpt><trkpt lat="43.924792047185136" lon="8.114395684692475"><ele>37.0</ele><time>2026-04-16T12:08:59Z</time></trkpt><trkpt lat="43.92476338749462" lon="8.114316810979663"><ele>32.66666666666667</ele><time>2026-04-16T12:09:00Z</time></trkpt><trkpt lat="43.92473815781419" lon="8.114179580905796"><ele>28.333333333333336</ele><time>2026-04-16T12:09:02Z</time></trkpt><trkpt lat="43.92473027549308" lon="8.114028032201631"><ele>24.0</ele><time>2026-04-16T12:09:04Z</time></trkpt><trkpt lat="43.924725823473324" lon="8.113874992829285"><ele>23.2</ele><time>2026-04-16T12:09:06Z</time></trkpt><trkpt lat="43.92469981458163" lon="8.113782366165609"><ele>22.4</ele><time>2026-04-16T12:09:07Z</time></trkpt><trkpt lat="43.92467222959662" lon="8.113620395889427"><ele>21.6</ele><time>2026-04-16T12:09:09Z</time></trkpt><trkpt lat="43.92463954496213" lon="8.113451498178604"><ele>20.8</ele><time>2026-04-16T12:09:11Z</time></trkpt><trkpt lat="43.9246029027047" lon="8.113279794425784"><ele>20.0</ele><time>2026-04-16T12:09:13Z</time></trkpt><trkpt lat="43.92456969854825" lon="8.113108604002738"><ele>20.0</ele><time>2026-04-16T12:09:15Z</time></trkpt><trkpt lat="43.924555336493114" lon="8.113022634937026"><ele>20.0</ele><time>2026-04-16T12:09:16Z</time></trkpt><trkpt lat="43.92453833842807" lon="8.11293482084748"><ele>20.0</ele><time>2026-04-16T12:09:17Z</time></trkpt><trkpt lat="43.924513283339266" lon="8.11283178974437"><ele>20.0</ele><time>2026-04-16T12:09:18Z</time></trkpt><trkpt lat="43.92447471125007" lon="8.112673765114192"><ele>20.0</ele><time>2026-04-16T12:09:20Z</time></trkpt><trkpt lat="43.92446083075761" lon="8.11258739021708"><ele>20.0</ele><time>2026-04-16T12:09:21Z</time></trkpt><trkpt lat="43.92446157375161" lon="8.112492907232424"><ele>19.2</ele><time>2026-04-16T12:09:22Z</time></trkpt><trkpt lat="43.92443389291121" lon="8.112324476762746"><ele>18.4</ele><time>2026-04-16T12:09:24Z</time></trkpt><trkpt lat="43.924408529185484" lon="8.112160297880774"><ele>17.6</ele><time>2026-04-16T12:09:26Z</time></trkpt><trkpt lat="43.92440478165628" lon="8.11207144330596"><ele>16.8</ele><time>2026-04-16T12:09:27Z</time></trkpt><trkpt lat="43.92439235026227" lon="8.111985034990795"><ele>16.0</ele><time>2026-04-16T12:09:28Z</time></trkpt><trkpt lat="43.92437841742089" lon="8.111826369535322"><ele>16.0</ele><time>2026-04-16T12:09:30Z</time></trkpt><trkpt lat="43.92437985197217" lon="8.111736847272118"><ele>16.0</ele><time>2026-04-16T12:09:31Z</time></trkpt><trkpt lat="43.92438560663139" lon="8.111648112557925"><ele>16.0</ele><time>2026-04-16T12:09:32Z</time></trkpt><trkpt lat="43.9243860751145" lon="8.111483036210737"><ele>16.0</ele><time>2026-04-16T12:09:34Z</time></trkpt><trkpt lat="43.924366316039844" lon="8.111321850486656"><ele>16.0</ele><time>2026-04-16T12:09:36Z</time></trkpt><trkpt lat="43.92435442371819" lon="8.11116598123856"><ele>15.333333333333332</ele><time>2026-04-16T12:09:38Z</time></trkpt><trkpt lat="43.92435248136425" lon="8.111069158424046"><ele>14.666666666666666</ele><time>2026-04-16T12:09:39Z</time></trkpt><trkpt lat="43.924338799225296" lon="8.110979505524458"><ele>14.0</ele><time>2026-04-16T12:09:40Z</time></trkpt><trkpt lat="43.92432990746939" lon="8.110813226600499"><ele>13.333333333333332</ele><time>2026-04-16T12:09:42Z</time></trkpt><trkpt lat="43.92431543876327" lon="8.110660795589183"><ele>12.666666666666666</ele><time>2026-04-16T12:09:44Z</time></trkpt><trkpt lat="43.924315725869455" lon="8.11056649968266"><ele>12.0</ele><time>2026-04-16T12:09:45Z</time></trkpt><trkpt lat="43.924301172890345" lon="8.110468911113948"><ele>11.75</ele><time>2026-04-16T12:09:46Z</time></trkpt><trkpt lat="43.92427810557738" lon="8.110317727647528"><ele>11.5</ele><time>2026-04-16T12:09:48Z</time></trkpt><trkpt lat="43.92427062202737" lon="8.11015694886983"><ele>11.25</ele><time>2026-04-16T12:09:50Z</time></trkpt><trkpt lat="43.92426024582083" lon="8.10999319341365"><ele>11.0</ele><time>2026-04-16T12:09:52Z</time></trkpt><trkpt lat="43.924295083348085" lon="8.10982996604111"><ele>11.0</ele><time>2026-04-16T12:09:54Z</time></trkpt><trkpt lat="43.92434814377595" lon="8.109660990247875"><ele>11.0</ele><time>2026-04-16T12:09:56Z</time></trkpt><trkpt lat="43.924371481836054" lon="8.109499934234053"><ele>11.0</ele><time>2026-04-16T12:09:58Z</time></trkpt><trkpt lat="43.92437670920856" lon="8.109333224923805"><ele>11.0</ele><time>2026-04-16T12:10:00Z</time></trkpt><trkpt lat="43.924388076531905" lon="8.109166598904528"><ele>11.0</ele><time>2026-04-16T12:10:02Z</time></trkpt><trkpt lat="43.924400476930856" lon="8.109076761695604"><ele>11.0</ele><time>2026-04-16T12:10:03Z</time></trkpt><trkpt lat="43.92441303681399" lon="8.108911668472617"><ele>11.0</ele><time>2026-04-16T12:10:05Z</time></trkpt><trkpt lat="43.92439773473549" lon="8.108735023110249"><ele>11.0</ele><time>2026-04-16T12:10:07Z</time></trkpt><trkpt lat="43.92438192173677" lon="8.108571015373911"><ele>11.0</ele><time>2026-04-16T12:10:09Z</time></trkpt><trkpt lat="43.92436197126208" lon="8.108485349554568"><ele>10.666666666666666</ele><time>2026-04-16T12:10:10Z</time></trkpt><trkpt lat="43.924344972267285" lon="8.108401170307928"><ele>10.333333333333332</ele><time>2026-04-16T12:10:11Z</time></trkpt><trkpt lat="43.9243357974501" lon="8.108312941404307"><ele>10.0</ele><time>2026-04-16T12:10:12Z</time></trkpt><trkpt lat="43.92431290288264" lon="8.108230568961298"><ele>9.666666666666666</ele><time>2026-04-16T12:10:13Z</time></trkpt><trkpt lat="43.924293071101765" lon="8.10806136667664"><ele>9.333333333333334</ele><time>2026-04-16T12:10:15Z</time></trkpt><trkpt lat="43.92428300499707" lon="8.107971906386522"><ele>9.0</ele><time>2026-04-16T12:10:16Z</time></trkpt><trkpt lat="43.924258442126984" lon="8.107807730337667"><ele>8.6</ele><time>2026-04-16T12:10:18Z</time></trkpt><trkpt lat="43.92425014497148" lon="8.10771928515203"><ele>8.2</ele><time>2026-04-16T12:10:19Z</time></trkpt><trkpt lat="43.92420555788086" lon="8.107556934126544"><ele>7.799999999999999</ele><time>2026-04-16T12:10:21Z</time></trkpt><trkpt lat="43.92414987318662" lon="8.107405623350942"><ele>7.3999999999999995</ele><time>2026-04-16T12:10:23Z</time></trkpt><trkpt lat="43.924080641710134" lon="8.107263157909191"><ele>7.0</ele><time>2026-04-16T12:10:25Z</time></trkpt><trkpt lat="43.92400305952299" lon="8.107124801269565"><ele>7.000000000000001</ele><time>2026-04-16T12:10:27Z</time></trkpt><trkpt lat="43.92392735696057" lon="8.107020328941294"><ele>7.0</ele><time>2026-04-16T12:10:29Z</time></trkpt><trkpt lat="43.92390983575659" lon="8.106913169142842"><ele>7.0</ele><time>2026-04-16T12:10:32Z</time></trkpt><trkpt lat="43.92394931535137" lon="8.106833643439682"><ele>7.0</ele><time>2026-04-16T12:10:35Z</time></trkpt><trkpt lat="43.92400746633003" lon="8.106770427528192"><ele>7.000000000000001</ele><time>2026-04-16T12:10:38Z</time></trkpt><trkpt lat="43.924084921748566" lon="8.10675767953808"><ele>7.0</ele><time>2026-04-16T12:10:40Z</time></trkpt><trkpt lat="43.92415571780436" lon="8.106744867313093"><ele>7.0</ele><time>2026-04-16T12:10:42Z</time></trkpt><trkpt lat="43.9242177335704" lon="8.106711769676561"><ele>6.999999999999999</ele><time>2026-04-16T12:10:44Z</time></trkpt><trkpt lat="43.9243018199324" lon="8.106685766626466"><ele>6.999999999999999</ele><time>2026-04-16T12:10:47Z</time></trkpt><trkpt lat="43.92438240052989" lon="8.10665023297631"><ele>7.0</ele><time>2026-04-16T12:10:49Z</time></trkpt><trkpt lat="43.924462184760145" lon="8.106615779782695"><ele>7.0</ele><time>2026-04-16T12:10:52Z</time></trkpt><trkpt lat="43.924933442362146" lon="8.106241769250566"><ele>7.199999999999999</ele><time>2026-04-16T12:10:55Z</time></trkpt><trkpt lat="43.92504184002845" lon="8.106190674091401"><ele>7.3999999999999995</ele><time>2026-04-16T12:10:57Z</time></trkpt><trkpt lat="43.92515100797267" lon="8.106129877119091"><ele>7.6000000000000005</ele><time>2026-04-16T12:10:59Z</time></trkpt><trkpt lat="43.925249964164905" lon="8.106094290869219"><ele>7.800000000000001</ele><time>2026-04-16T12:11:01Z</time></trkpt><trkpt lat="43.92535820379372" lon="8.106131437020682"><ele>8.0</ele><time>2026-04-16T12:11:03Z</time></trkpt><trkpt lat="43.925465642936835" lon="8.106158447662926"><ele>8.200000000000001</ele><time>2026-04-16T12:11:05Z</time></trkpt><trkpt lat="43.92556800578006" lon="8.106164648195051"><ele>8.4</ele><time>2026-04-16T12:11:07Z</time></trkpt><trkpt lat="43.92570759438154" lon="8.10618528757599"><ele>8.600000000000001</ele><time>2026-04-16T12:11:10Z</time></trkpt><trkpt lat="43.925819264164296" lon="8.106204793149919"><ele>8.8</ele><time>2026-04-16T12:11:12Z</time></trkpt><trkpt lat="43.92589293619333" lon="8.106224146681742"><ele>9.0</ele><time>2026-04-16T12:11:14Z</time></trkpt><trkpt lat="43.925984426407595" lon="8.10622881394896"><ele>9.333333333333334</ele><time>2026-04-16T12:11:16Z</time></trkpt><trkpt lat="43.92605286758612" lon="8.106239673368147"><ele>9.666666666666666</ele><time>2026-04-16T12:11:20Z</time></trkpt><trkpt lat="43.926116563418255" lon="8.106225579690154"><ele>10.0</ele><time>2026-04-16T12:11:22Z</time></trkpt><trkpt lat="43.92620338663391" lon="8.106237707319872"><ele>10.333333333333332</ele><time>2026-04-16T12:11:25Z</time></trkpt><trkpt lat="43.92628074132857" lon="8.106261042040682"><ele>10.666666666666666</ele><time>2026-04-16T12:11:28Z</time></trkpt><trkpt lat="43.92635774508828" lon="8.106130874696646"><ele>11.0</ele><time>2026-04-16T12:11:31Z</time></trkpt><trkpt lat="43.92644262064952" lon="8.106112933376384"><ele>11.0</ele><time>2026-04-16T12:11:34Z</time></trkpt><trkpt lat="43.926517460375806" lon="8.106033672796665"><ele>11.0</ele><time>2026-04-16T12:11:36Z</time></trkpt><trkpt lat="43.926590455779895" lon="8.106027900808028"><ele>11.0</ele><time>2026-04-16T12:11:37Z</time></trkpt><trkpt lat="43.92666889380696" lon="8.106016219911835"><ele>11.0</ele><time>2026-04-16T12:11:38Z</time></trkpt><trkpt lat="43.926740002846834" lon="8.105984307170315"><ele>11.0</ele><time>2026-04-16T12:11:39Z</time></trkpt><trkpt lat="43.92681754764118" lon="8.105990535839084"><ele>11.0</ele><time>2026-04-16T12:11:40Z</time></trkpt><trkpt lat="43.926926145124966" lon="8.106080423548425"><ele>11.0</ele><time>2026-04-16T12:11:41Z</time></trkpt><trkpt lat="43.92699291058411" lon="8.106047904281507"><ele>11.0</ele><time>2026-04-16T12:11:42Z</time></trkpt><trkpt lat="43.926993618112235" lon="8.105755680822353"><ele>11.0</ele><time>2026-04-16T12:11:44Z</time></trkpt><trkpt lat="43.92706750370148" lon="8.105591963830504"><ele>11.0</ele><time>2026-04-16T12:11:46Z</time></trkpt><trkpt lat="43.927089215436744" lon="8.105501004767564"><ele>11.200000000000001</ele><time>2026-04-16T12:11:47Z</time></trkpt><trkpt lat="43.92712617185983" lon="8.105332314434339"><ele>11.4</ele><time>2026-04-16T12:11:49Z</time></trkpt><trkpt lat="43.927135008463544" lon="8.105159269054395"><ele>11.6</ele><time>2026-04-16T12:11:51Z</time></trkpt><trkpt lat="43.92713354325119" lon="8.105070139181537"><ele>11.8</ele><time>2026-04-16T12:11:52Z</time></trkpt><trkpt lat="43.92713936307871" lon="8.104895471226087"><ele>12.0</ele><time>2026-04-16T12:11:54Z</time></trkpt><trkpt lat="43.92714335077442" lon="8.104806889483465"><ele>12.2</ele><time>2026-04-16T12:11:55Z</time></trkpt><trkpt lat="43.92714601916818" lon="8.104670341513616"><ele>12.399999999999999</ele><time>2026-04-16T12:11:57Z</time></trkpt><trkpt lat="43.92716465164244" lon="8.104516955184515"><ele>12.600000000000001</ele><time>2026-04-16T12:11:59Z</time></trkpt><trkpt lat="43.927164224791916" lon="8.104363499105222"><ele>12.8</ele><time>2026-04-16T12:12:01Z</time></trkpt><trkpt lat="43.92715767187604" lon="8.104231007938054"><ele>13.0</ele><time>2026-04-16T12:12:03Z</time></trkpt><trkpt lat="43.92716768222468" lon="8.104075211863982"><ele>13.0</ele><time>2026-04-16T12:12:05Z</time></trkpt><trkpt lat="43.92718635486962" lon="8.103909968437"><ele>13.0</ele><time>2026-04-16T12:12:07Z</time></trkpt><trkpt lat="43.92718133305317" lon="8.10374183905162"><ele>13.0</ele><time>2026-04-16T12:12:09Z</time></trkpt><trkpt lat="43.92713160631352" lon="8.103629143039518"><ele>13.0</ele><time>2026-04-16T12:12:10Z</time></trkpt><trkpt lat="43.92716041402427" lon="8.10350769576178"><ele>13.0</ele><time>2026-04-16T12:12:12Z</time></trkpt><trkpt lat="43.927164925744734" lon="8.103349537445125"><ele>13.8</ele><time>2026-04-16T12:12:14Z</time></trkpt><trkpt lat="43.92714253790241" lon="8.103197277200795"><ele>14.600000000000001</ele><time>2026-04-16T12:12:16Z</time></trkpt><trkpt lat="43.927152346757254" lon="8.103102292938766"><ele>15.399999999999999</ele><time>2026-04-16T12:12:17Z</time></trkpt><trkpt lat="43.92714842188896" lon="8.102948874254631"><ele>16.2</ele><time>2026-04-16T12:12:19Z</time></trkpt><trkpt lat="43.927146733049895" lon="8.102861278042347"><ele>17.0</ele><time>2026-04-16T12:12:20Z</time></trkpt><trkpt lat="43.92713549202356" lon="8.102714054803851"><ele>17.0</ele><time>2026-04-16T12:12:22Z</time></trkpt><trkpt lat="43.92710676658798" lon="8.10258061128753"><ele>17.0</ele><time>2026-04-16T12:12:25Z</time></trkpt><trkpt lat="43.92704402339142" lon="8.102559148004083"><ele>17.0</ele><time>2026-04-16T12:12:27Z</time></trkpt><trkpt lat="43.92696552321704" lon="8.102554195356541"><ele>17.0</ele><time>2026-04-16T12:12:28Z</time></trkpt><trkpt lat="43.926907713619656" lon="8.10248554982082"><ele>17.0</ele><time>2026-04-16T12:12:29Z</time></trkpt><trkpt lat="43.92686301132392" lon="8.102411170640034"><ele>17.0</ele><time>2026-04-16T12:12:30Z</time></trkpt><trkpt lat="43.92683343758073" lon="8.102331193890835"><ele>17.2</ele><time>2026-04-16T12:12:31Z</time></trkpt><trkpt lat="43.9268004267542" lon="8.102164195512657"><ele>17.4</ele><time>2026-04-16T12:12:33Z</time></trkpt><trkpt lat="43.92681028778756" lon="8.10206497711154"><ele>17.6</ele><time>2026-04-16T12:12:34Z</time></trkpt><trkpt lat="43.926798625627974" lon="8.101914115846757"><ele>17.8</ele><time>2026-04-16T12:12:36Z</time></trkpt><trkpt lat="43.9267881262004" lon="8.101750889245963"><ele>18.0</ele><time>2026-04-16T12:12:38Z</time></trkpt><trkpt lat="43.92677886556116" lon="8.10161774615914"><ele>18.8</ele><time>2026-04-16T12:12:40Z</time></trkpt><trkpt lat="43.92678101417963" lon="8.101522379657554"><ele>19.6</ele><time>2026-04-16T12:12:46Z</time></trkpt><trkpt lat="43.926850845840484" lon="8.101493804699881"><ele>20.400000000000002</ele><time>2026-04-16T12:12:52Z</time></trkpt><trkpt lat="43.92698464179299" lon="8.101483453111953"><ele>21.200000000000003</ele><time>2026-04-16T12:12:55Z</time></trkpt><trkpt lat="43.92708696911943" lon="8.101480756984712"><ele>22.0</ele><time>2026-04-16T12:12:57Z</time></trkpt><trkpt lat="43.927186155218" lon="8.101435913646108"><ele>22.0</ele><time>2026-04-16T12:12:59Z</time></trkpt><trkpt lat="43.92729758528331" lon="8.101423175976523"><ele>22.0</ele><time>2026-04-16T12:13:01Z</time></trkpt><trkpt lat="43.92744619243845" lon="8.101417187929286"><ele>22.0</ele><time>2026-04-16T12:13:03Z</time></trkpt><trkpt lat="43.92751231299109" lon="8.101398795460447"><ele>22.0</ele><time>2026-04-16T12:13:04Z</time></trkpt><trkpt lat="43.92757575090119" lon="8.10140800162115"><ele>22.0</ele><time>2026-04-16T12:13:05Z</time></trkpt><trkpt lat="43.92769055479115" lon="8.101415667434942"><ele>21.833333333333332</ele><time>2026-04-16T12:13:07Z</time></trkpt><trkpt lat="43.92780613304519" lon="8.101419516517172"><ele>21.666666666666664</ele><time>2026-04-16T12:13:09Z</time></trkpt><trkpt lat="43.927875735029566" lon="8.101419883142041"><ele>21.5</ele><time>2026-04-16T12:13:10Z</time></trkpt><trkpt lat="43.92793677269274" lon="8.101397641814051"><ele>21.333333333333332</ele><time>2026-04-16T12:13:11Z</time></trkpt><trkpt lat="43.92800647859577" lon="8.101379817816804"><ele>21.166666666666668</ele><time>2026-04-16T12:13:12Z</time></trkpt><trkpt lat="43.92807310998757" lon="8.101385434222152"><ele>21.0</ele><time>2026-04-16T12:13:13Z</time></trkpt><trkpt lat="43.92817617699252" lon="8.101377869678283"><ele>21.0</ele><time>2026-04-16T12:13:15Z</time></trkpt><trkpt lat="43.928257987700945" lon="8.101358027833248"><ele>21.0</ele><time>2026-04-16T12:13:17Z</time></trkpt><trkpt lat="43.928323018399645" lon="8.101480666358093"><ele>21.0</ele><time>2026-04-16T12:13:18Z</time></trkpt><trkpt lat="43.9284092828611" lon="8.101575474425939"><ele>21.0</ele><time>2026-04-16T12:13:20Z</time></trkpt><trkpt lat="43.9284652604971" lon="8.101686933139892"><ele>21.0</ele><time>2026-04-16T12:13:22Z</time></trkpt><trkpt lat="43.92853684403288" lon="8.10179626337126"><ele>21.8</ele><time>2026-04-16T12:13:24Z</time></trkpt><trkpt lat="43.928692035604236" lon="8.101753284842477"><ele>22.6</ele><time>2026-04-16T12:13:30Z</time></trkpt><trkpt lat="43.928713093232005" lon="8.10162957691633"><ele>23.4</ele><time>2026-04-16T12:13:33Z</time></trkpt><trkpt lat="43.928811780334776" lon="8.101644034048004"><ele>24.2</ele><time>2026-04-16T12:13:36Z</time></trkpt><trkpt lat="43.928843808908475" lon="8.101740880493972"><ele>25.0</ele><time>2026-04-16T12:13:38Z</time></trkpt><trkpt lat="43.92892600266919" lon="8.101771790559681"><ele>25.000000000000004</ele><time>2026-04-16T12:13:41Z</time></trkpt><trkpt lat="43.92899935179602" lon="8.10171214030865"><ele>25.0</ele><time>2026-04-16T12:13:44Z</time></trkpt><trkpt lat="43.9290802502924" lon="8.101635793915197"><ele>25.0</ele><time>2026-04-16T12:13:47Z</time></trkpt><trkpt lat="43.92915077187393" lon="8.101640621442534"><ele>25.0</ele><time>2026-04-16T12:13:52Z</time></trkpt><trkpt lat="43.92921400311728" lon="8.10167264528508"><ele>25.000000000000004</ele><time>2026-04-16T12:13:56Z</time></trkpt><trkpt lat="43.92930098930062" lon="8.101640513581616"><ele>25.0</ele><time>2026-04-16T12:14:00Z</time></trkpt><trkpt lat="43.92938982856546" lon="8.10158220499256"><ele>27.75</ele><time>2026-04-16T12:14:03Z</time></trkpt><trkpt lat="43.92948595871435" lon="8.101599850279454"><ele>30.5</ele><time>2026-04-16T12:14:05Z</time></trkpt><trkpt lat="43.92962114731547" lon="8.101638570360729"><ele>33.25</ele><time>2026-04-16T12:14:07Z</time></trkpt><trkpt lat="43.929788232065434" lon="8.101679405715155"><ele>36.0</ele><time>2026-04-16T12:14:11Z</time></trkpt><trkpt lat="43.92987166327133" lon="8.101694297788633"><ele>36.0</ele><time>2026-04-16T12:14:12Z</time></trkpt><trkpt lat="43.92994856863004" lon="8.101753110611517"><ele>36.0</ele><time>2026-04-16T12:14:14Z</time></trkpt><trkpt lat="43.930032240520944" lon="8.101843843350744"><ele>36.0</ele><time>2026-04-16T12:14:16Z</time></trkpt><trkpt lat="43.930101592071345" lon="8.10188300554956"><ele>36.0</ele><time>2026-04-16T12:14:19Z</time></trkpt><trkpt lat="43.9301642529233" lon="8.101923829127232"><ele>36.0</ele><time>2026-04-16T12:14:21Z</time></trkpt><trkpt lat="43.93024711666999" lon="8.101993209201407"><ele>36.0</ele><time>2026-04-16T12:14:24Z</time></trkpt><trkpt lat="43.93033584828067" lon="8.10202418217356"><ele>38.666666666666664</ele><time>2026-04-16T12:14:27Z</time></trkpt><trkpt lat="43.93036785322361" lon="8.102105563049586"><ele>41.33333333333333</ele><time>2026-04-16T12:14:30Z</time></trkpt><trkpt lat="43.93044718295373" lon="8.102137778116603"><ele>44.0</ele><time>2026-04-16T12:14:33Z</time></trkpt><trkpt lat="43.93050684734919" lon="8.10217304321918"><ele>46.666666666666664</ele><time>2026-04-16T12:14:36Z</time></trkpt><trkpt lat="43.93059116846706" lon="8.102183382629953"><ele>49.33333333333333</ele><time>2026-04-16T12:14:39Z</time></trkpt><trkpt lat="43.93065819977807" lon="8.102245893080894"><ele>52.0</ele><time>2026-04-16T12:14:42Z</time></trkpt><trkpt lat="43.930789016731296" lon="8.10225845813472"><ele>51.99999999999999</ele><time>2026-04-16T12:14:47Z</time></trkpt><trkpt lat="43.93085193580973" lon="8.102275251408823"><ele>52.0</ele><time>2026-04-16T12:14:50Z</time></trkpt><trkpt lat="43.93094634285066" lon="8.10231656123512"><ele>52.0</ele><time>2026-04-16T12:14:53Z</time></trkpt><trkpt lat="43.93100373208742" lon="8.102379115474138"><ele>52.0</ele><time>2026-04-16T12:14:56Z</time></trkpt><trkpt lat="43.93107460479407" lon="8.102399357772299"><ele>51.99999999999999</ele><time>2026-04-16T12:15:01Z</time></trkpt><trkpt lat="43.93114633088788" lon="8.102402022290661"><ele>52.0</ele><time>2026-04-16T12:15:06Z</time></trkpt><trkpt lat="43.93119599541632" lon="8.102473916211997"><ele>53.14285714285714</ele><time>2026-04-16T12:15:20Z</time></trkpt><trkpt lat="43.93126030894936" lon="8.102491346693437"><ele>54.28571428571429</ele><time>2026-04-16T12:15:23Z</time></trkpt><trkpt lat="43.93132380201966" lon="8.102476612270822"><ele>55.42857142857143</ele><time>2026-04-16T12:15:26Z</time></trkpt><trkpt lat="43.93134453478946" lon="8.102578911103983"><ele>56.57142857142857</ele><time>2026-04-16T12:17:37Z</time></trkpt><trkpt lat="43.93132182158671" lon="8.102496633313308"><ele>57.71428571428571</ele><time>2026-04-16T12:18:00Z</time></trkpt><trkpt lat="43.93130359890804" lon="8.10240330385887"><ele>58.85714285714286</ele><time>2026-04-16T12:18:13Z</time></trkpt><trkpt lat="43.93135498476848" lon="8.10248227333908"><ele>60.0</ele><time>2026-04-16T12:18:53Z</time></trkpt><trkpt lat="43.931339497434685" lon="8.102385066986821"><ele>67.0</ele><time>2026-04-16T12:19:04Z</time></trkpt></trkseg></trk></gpx>